Flight Track Log - Related Links

Times and Time Zones

All times are in EDT time to prevent confusion due to time zone crossing. See the AFL150 flight status page for this flight to view local times or setup timezone preferences in your user account.

Time Position Orientation Groundspeed Altitude Reporting Facility
EDT Latitude Longitude Course Direction KTS MPH feet Rate Location/Type
Sun 05:35:27 AM 55.9620 37.3600 252° West 174 200 2,400  Level FlightAware ADS-B
Sun 05:36:07 AM 55.9520 37.3000 253° West 203 234 3,400 1,543 Climbing FlightAware ADS-B
Sun 05:36:37 AM 55.9440 37.2480 255° West 229 264 4,200 1,636 Climbing FlightAware ADS-B
Sun 05:37:13 AM 55.9420 37.1790 267° West 255 293 5,200 2,240 Climbing FlightAware ADS-B
Sun 05:37:52 AM 55.9550 37.0990 286° West 263 303 7,000 2,783 Climbing FlightAware ADS-B
Sun 05:38:22 AM 55.9620 37.0340 281° West 266 306 8,400 2,743 Climbing FlightAware ADS-B
Sun 05:39:02 AM 55.9720 36.9450 281° West 271 312 10,200 2,025 Climbing FlightAware ADS-B
Sun 05:39:42 AM 55.9830 36.8540 282° West 307 353 11,100 1,280 Climbing FlightAware ADS-B
Sun 05:40:17 AM 55.9940 36.7610 282° West 341 392 11,800 1,725 Climbing FlightAware ADS-B
Sun 05:41:02 AM 56.0100 36.6340 283° West 361 415 13,400 2,400 Climbing FlightAware ADS-B
Sun 05:41:37 AM 56.0220 36.5300 282° West 366 421 15,000 2,571 Climbing FlightAware ADS-B
Sun 05:42:12 AM 56.0350 36.4270 283° West 370 426 16,400 2,400 Climbing FlightAware ADS-B
Sun 05:42:42 AM 56.0460 36.3380 283° West 374 430 17,600 2,200 Climbing FlightAware ADS-B
Sun 05:43:12 AM 56.0570 36.2440 282° West 383 441 18,600 1,906 Climbing FlightAware ADS-B
Sun 05:44:07 AM 56.0770 36.0720 282° West 396 456 20,300 1,906 Climbing FlightAware ADS-B
Sun 05:44:37 AM 56.0880 35.9750 282° West 401 461 21,300 1,846 Climbing FlightAware ADS-B
Sun 05:45:12 AM 56.1010 35.8610 282° West 407 468 22,300 1,680 Climbing FlightAware ADS-B
Sun 05:45:52 AM 56.1170 35.7280 282° West 414 476 23,400 1,667 Climbing FlightAware ADS-B
Sun 05:46:42 AM 56.1360 35.5580 281° West 422 486 24,800 1,584 Climbing FlightAware ADS-B
Sun 05:47:57 AM 56.1650 35.2980 281° West 432 497 26,700 1,680 Climbing FlightAware ADS-B
Sun 05:48:47 AM 56.1840 35.1240 281° West 426 490 28,300 1,765 Climbing FlightAware ADS-B
Sun 05:49:22 AM 56.1970 35.0030 281° West 426 490 29,200 1,477 Climbing FlightAware ADS-B
Sun 05:49:52 AM 56.2080 34.8980 281° West 425 489 29,900 1,400 Climbing FlightAware ADS-B
Sun 05:50:22 AM 56.2190 34.7940 281° West 424 488 30,600 1,292 Climbing FlightAware ADS-B
Sun 05:50:57 AM 56.2320 34.6750 281° West 425 489 31,300 1,120 Climbing FlightAware ADS-B
Sun 05:51:37 AM 56.2460 34.5350 280° West 421 484 32,000 600 Climbing FlightAware ADS-B
Sun 05:52:07 AM 56.2560 34.4360 280° West 416 479 32,000  Level FlightAware ADS-B
Sun 05:52:52 AM 56.2720 34.2800 281° West 422 486 32,000  Level FlightAware ADS-B
Sun 05:53:32 AM 56.2860 34.1430 280° West 422 486 32,000  Level FlightAware ADS-B
Sun 05:54:12 AM 56.3000 34.0050 280° West 424 488 32,000  Level FlightAware ADS-B
Sun 05:54:47 AM 56.3120 33.8810 280° West 425 489 32,000  Level FlightAware ADS-B
Sun 05:55:17 AM 56.3220 33.7760 280° West 425 489 32,000  Level FlightAware ADS-B
Sun 05:55:47 AM 56.3320 33.6720 280° West 426 490 32,000  Level FlightAware ADS-B
Sun 05:56:32 AM 56.3470 33.5150 280° West 428 493 32,000  Level FlightAware ADS-B
Sun 05:56:57 AM 56.3550 33.4280 279° West 428 493 32,000  Level FlightAware ADS-B
Sun 05:57:53 AM 56.3730 33.2340 280° West 429 494 32,000  Level FlightAware ADS-B
Sun 05:58:32 AM 56.3860 33.0940 280° West 430 495 32,000  Level FlightAware ADS-B
Sun 05:59:12 AM 56.3990 32.9510 279° West 430 495 32,000  Level FlightAware ADS-B
Sun 05:59:47 AM 56.4100 32.8290 279° West 431 496 32,000  Level FlightAware ADS-B
Sun 06:00:32 AM 56.4240 32.6720 279° West 431 496 32,000  Level FlightAware ADS-B
Sun 06:01:22 AM 56.4400 32.4940 279° West 432 497 32,000  Level FlightAware ADS-B
Sun 06:01:52 AM 56.4480 32.3890 278° West 432 497 32,000  Level FlightAware ADS-B
Sun 06:02:32 AM 56.4600 32.2490 279° West 433 498 32,000  Level FlightAware ADS-B
Sun 06:03:12 AM 56.4700 32.1270 278° West 433 498 32,000  Level FlightAware ADS-B
Sun 06:03:36 AM 56.4760 32.0540 278° West 433 498 32,000  Level FlightAware ADS-B
Sun 06:04:12 AM 56.4840 31.9440 278° West 433 498 32,000  Level FlightAware ADS-B
Sun 06:05:02 AM 56.4960 31.7910 278° West 433 498 32,000  Level FlightAware ADS-B
Sun 06:05:39 AM 56.5050 31.6780 278° West 433 498 32,000  Level FlightAware ADS-B
Sun 06:06:25 AM 56.5150 31.5370 277° West 433 498 32,000  Level FlightAware ADS-B
Sun 06:06:55 AM 56.5370 31.2900 279° West 441 507 32,000  Level FlightAware ADS-B
Sun 06:07:25 AM 56.5440 31.1960 278° West 442 509 32,000  Level FlightAware ADS-B
Sun 06:08:05 AM 56.5530 31.0710 277° West 442 509 32,000  Level FlightAware ADS-B
Sun 06:08:40 AM 56.6130 30.9470 311° West 423 487 32,000  Level FlightAware ADS-B
Sun 06:09:50 AM 56.6970 30.7650 310° West 423 487 32,000  Level FlightAware ADS-B
Sun 06:10:25 AM 56.7420 30.6550 307° West 426 490 32,000  Level FlightAware ADS-B
Sun 06:10:50 AM 56.7690 30.5850 305° West 426 490 32,000  Level FlightAware ADS-B
Sun 06:11:34 AM 56.8140 30.4630 304° West 425 489 32,000  Level FlightAware ADS-B
Sun 06:12:10 AM 56.8510 30.3640 304° West 424 488 32,000  Level FlightAware ADS-B
Sun 06:12:46 AM 56.8910 30.2550 304° West 423 487 32,000  Level FlightAware ADS-B
Sun 06:13:29 AM 56.9430 30.1120 304° West 421 484 32,000  Level FlightAware ADS-B
Sun 06:14:39 AM 57.0180 29.9060 304° West 418 481 32,000  Level FlightAware ADS-B
Sun 06:15:11 AM 57.0450 29.8300 303° West 418 481 32,000  Level FlightAware ADS-B
Sun 06:16:00 AM 57.1040 29.6680 304° West 418 481 32,000  Level FlightAware ADS-B
Sun 06:16:35 AM 57.1370 29.5750 303° West 418 481 32,000  Level FlightAware ADS-B
Sun 06:17:20 AM 57.1880 29.4330 304° West 418 481 32,000  Level FlightAware ADS-B
Sun 06:18:00 AM 57.2280 29.3180 303° West 418 481 32,000  Level FlightAware ADS-B
Sun 06:18:34 AM 57.2660 29.2110 303° West 419 482 32,000  Level FlightAware ADS-B
Sun 06:19:14 AM 57.3080 29.0930 303° West 419 482 32,000  Level FlightAware ADS-B
Sun 06:19:45 AM 57.3400 29.0010 303° West 419 482 32,000  Level FlightAware ADS-B
Sun 06:20:33 AM 57.3930 28.8490 303° West 420 483 32,000  Level FlightAware ADS-B
Sun 06:21:14 AM 57.4350 28.7280 303° West 420 483 32,000  Level FlightAware ADS-B
Sun 06:21:53 AM 57.4760 28.6080 302° West 420 483 32,000  Level FlightAware ADS-B
Sun 06:22:30 AM 57.5150 28.4950 303° West 420 483 32,000  Level FlightAware ADS-B
Sun 06:23:04 AM 57.5510 28.3890 302° West 421 484 32,000  Level FlightAware ADS-B
Sun 06:23:40 AM 57.5880 28.2800 302° West 420 483 32,000  Level FlightAware ADS-B
Sun 06:24:14 AM 57.6190 28.1870 302° West 420 483 32,000  Level FlightAware ADS-B
Sun 06:24:54 AM 57.6640 28.0550 303° West 421 484 32,000  Level FlightAware ADS-B
Sun 06:25:38 AM 57.7090 27.9200 302° West 422 486 32,000  Level FlightAware ADS-B
Sun 06:26:19 AM 57.7510 27.7960 302° West 422 486 32,000  Level FlightAware ADS-B
Sun 06:26:53 AM 57.7870 27.6860 302° West 422 486 32,000  Level FlightAware ADS-B
Sun 06:27:22 AM 57.8160 27.6000 302° West 422 486 32,000  Level FlightAware ADS-B
Sun 06:27:54 AM 57.8450 27.4910 297° West 424 488 32,000  Level FlightAware ADS-B
Sun 06:28:55 AM 57.8870 27.2810 291° West 424 488 32,000  Level FlightAware ADS-B
Sun 06:29:39 AM 57.9170 27.1310 291° West 425 489 32,000  Level FlightAware ADS-B
Sun 06:30:16 AM 57.9420 27.0080 291° West 426 490 32,000  Level FlightAware ADS-B
Sun 06:30:55 AM 57.9700 26.8690 291° West 427 491 32,000  Level FlightAware ADS-B
Sun 06:31:55 AM 58.0110 26.6590 290° West 427 491 32,000  Level FlightAware ADS-B
Sun 06:32:38 AM 58.0410 26.5090 291° West 428 493 32,000  Level FlightAware ADS-B
Sun 06:33:13 AM 58.0650 26.3840 290° West 428 493 32,000  Level FlightAware ADS-B
Sun 06:34:00 AM 58.0960 26.2220 290° West 428 493 32,000  Level FlightAware ADS-B
Sun 06:34:31 AM 58.1170 26.1110 290° West 430 495 32,000  Level FlightAware ADS-B
Sun 06:35:21 AM 58.1500 25.9380 290° West 429 494 32,000  Level FlightAware ADS-B
Sun 06:36:04 AM 58.1790 25.7850 290° West 430 495 32,000  Level FlightAware ADS-B
Sun 06:37:09 AM 58.2220 25.5540 290° West 430 495 32,000  Level FlightAware ADS-B
Sun 06:37:48 AM 58.2480 25.4160 290° West 431 496 32,000  Level FlightAware ADS-B
Sun 06:38:25 AM 58.2720 25.2820 289° West 432 497 32,000  Level FlightAware ADS-B
Sun 06:39:08 AM 58.3000 25.1280 289° West 433 498 32,000  Level FlightAware ADS-B
Sun 06:39:45 AM 58.3240 24.9960 289° West 434 499 32,000  Level FlightAware ADS-B
Sun 06:40:16 AM 58.3440 24.8870 289° West 434 499 32,000  Level FlightAware ADS-B
Sun 06:41:01 AM 58.3730 24.7220 289° West 434 499 32,000  Level FlightAware ADS-B
Sun 06:41:43 AM 58.4000 24.5710 289° West 435 501 32,000  Level FlightAware ADS-B
Sun 06:42:27 AM 58.4280 24.4090 288° West 436 502 32,000  Level FlightAware ADS-B
Sun 06:43:09 AM 58.4500 24.2560 285° West 437 503 32,000  Level FlightAware ADS-B
Sun 06:43:48 AM 58.4720 24.1110 286° West 436 502 32,000  Level FlightAware ADS-B
Sun 06:44:25 AM 58.4930 23.9740 286° West 436 502 32,000  Level FlightAware ADS-B
Sun 06:45:01 AM 58.5130 23.8400 286° West 437 503 32,000  Level FlightAware ADS-B
Sun 06:45:36 AM 58.5320 23.7090 286° West 438 504 32,000  Level FlightAware ADS-B
Sun 06:46:08 AM 58.5500 23.5900 286° West 439 505 32,000  Level FlightAware ADS-B
Sun 06:46:46 AM 58.5700 23.4510 285° West 440 506 32,000  Level FlightAware ADS-B
Sun 06:47:18 AM 58.5880 23.3280 286° West 439 505 32,000  Level FlightAware ADS-B
Sun 06:47:56 AM 58.6080 23.1860 285° West 440 506 32,000  Level FlightAware ADS-B
Sun 06:48:29 AM 58.6250 23.0640 285° West 441 507 32,000  Level FlightAware ADS-B
Sun 06:49:06 AM 58.6450 22.9240 285° West 441 507 32,000  Level FlightAware ADS-B
Sun 06:49:41 AM 58.6630 22.7950 285° West 441 507 32,000  Level FlightAware ADS-B
Sun 06:50:24 AM 58.6860 22.6270 285° West 441 507 32,000  Level FlightAware ADS-B
Sun 06:51:05 AM 58.7060 22.4760 284° West 442 509 32,000  Level FlightAware ADS-B
Sun 06:51:48 AM 58.7290 22.3090 285° West 443 510 32,000  Level FlightAware ADS-B
Sun 06:52:34 AM 58.7520 22.1370 285° West 443 510 32,000  Level FlightAware ADS-B
Sun 06:53:22 AM 58.7750 21.9630 284° West 445 512 32,000  Level FlightAware ADS-B
Sun 06:54:05 AM 58.7980 21.7890 284° West 444 511 32,000  Level FlightAware ADS-B
Sun 06:54:49 AM 58.8190 21.6230 284° West 445 512 32,000  Level FlightAware ADS-B
Sun 06:55:39 AM 58.8440 21.4300 284° West 444 511 32,000  Level FlightAware ADS-B
Sun 06:56:15 AM 58.8610 21.2960 284° West 444 511 32,000  Level FlightAware ADS-B
Sun 06:57:07 AM 58.8900 21.0920 285° West 448 516 32,000  Level FlightAware ADS-B
Sun 06:57:42 AM 58.9120 20.9570 288° West 449 517 32,000  Level FlightAware ADS-B
Sun 06:58:06 AM 58.9270 20.8670 288° West 450 518 32,000  Level FlightAware ADS-B
Sun 06:58:58 AM 58.9600 20.6680 288° West 451 519 32,000  Level FlightAware ADS-B
Sun 06:59:43 AM 58.9880 20.4940 287° West 452 520 32,000  Level FlightAware ADS-B
Sun 07:00:55 AM 59.0330 20.2180 288° West 455 524 32,000  Level FlightAware ADS-B
Sun 07:01:32 AM 59.0560 20.0730 287° West 456 525 32,000  Level FlightAware ADS-B
Sun 07:02:11 AM 59.0800 19.9200 287° West 456 525 32,000  Level FlightAware ADS-B
Sun 07:02:52 AM 59.1050 19.7570 287° West 457 526 32,000  Level FlightAware ADS-B
Sun 07:03:22 AM 59.1230 19.6420 287° West 458 527 32,000  Level FlightAware ADS-B
Sun 07:04:03 AM 59.1480 19.4780 287° West 458 527 32,000  Level FlightAware ADS-B
Sun 07:04:42 AM 59.1720 19.3240 287° West 457 526 32,000  Level FlightAware ADS-B
Sun 07:05:18 AM 59.1920 19.1890 286° West 457 526 32,000  Level FlightAware ADS-B
Sun 07:05:52 AM 59.2140 19.0470 287° West 457 526 32,000  Level FlightAware ADS-B
Sun 07:06:53 AM 59.2480 18.8140 286° West 457 526 32,000  Level FlightAware ADS-B
Sun 07:07:22 AM 59.2660 18.6920 286° West 456 525 32,000  Level FlightAware ADS-B
Sun 07:07:57 AM 59.2860 18.5540 286° West 455 524 32,000  Level FlightAware ADS-B
Sun 07:08:41 AM 59.3100 18.3860 286° West 453 521 32,000  Level FlightAware ADS-B
Sun 07:09:18 AM 59.3320 18.2340 286° West 451 519 32,000  Level FlightAware ADS-B
Sun 07:09:56 AM 59.3530 18.0880 286° West 450 518 32,000  Level FlightAware ADS-B
Sun 07:10:36 AM 59.3740 17.9330 285° West 448 516 32,000  Level FlightAware ADS-B
Sun 07:11:21 AM 59.3990 17.7570 286° West 447 514 32,000  Level FlightAware ADS-B
Sun 07:11:42 AM 59.4100 17.6740 285° West 446 513 32,000  Level FlightAware ADS-B
Sun 07:12:36 AM 59.4390 17.4630 285° West 444 511 32,000  Level FlightAware ADS-B
Sun 07:13:04 AM 59.4540 17.3540 285° West 443 510 32,000  Level FlightAware ADS-B
Sun 07:13:41 AM 59.4730 17.2090 285° West 442 509 32,000  Level FlightAware ADS-B
Sun 07:14:23 AM 59.4940 17.0510 285° West 441 507 32,000  Level FlightAware ADS-B
Sun 07:15:03 AM 59.5150 16.8920 285° West 440 506 32,000  Level FlightAware ADS-B
Sun 07:15:42 AM 59.5340 16.7400 284° West 440 506 32,000  Level FlightAware ADS-B
Sun 07:16:22 AM 59.5550 16.5800 285° West 440 506 32,000  Level FlightAware ADS-B
Sun 07:17:11 AM 59.5790 16.3930 284° West 440 506 32,000  Level FlightAware ADS-B
Sun 07:17:46 AM 59.5960 16.2570 284° West 439 505 32,000  Level FlightAware ADS-B
Sun 07:18:22 AM 59.6130 16.1160 283° West 439 505 32,000  Level FlightAware ADS-B
Sun 07:19:03 AM 59.6330 15.9560 284° West 440 506 32,000  Level FlightAware ADS-B
Sun 07:19:38 AM 59.6490 15.8210 283° West 439 505 32,000  Level FlightAware ADS-B
Sun 07:20:19 AM 59.6690 15.6600 284° West 438 504 32,000  Level FlightAware ADS-B
Sun 07:20:54 AM 59.6850 15.5260 283° West 437 503 32,000  Level FlightAware ADS-B
Sun 07:21:33 AM 59.7030 15.3730 283° West 438 504 32,000  Level FlightAware ADS-B
Sun 07:22:04 AM 59.7170 15.2540 283° West 437 503 32,000  Level FlightAware ADS-B
Sun 07:22:45 AM 59.7350 15.0950 283° West 436 502 32,000  Level FlightAware ADS-B
Sun 07:23:21 AM 59.7510 14.9530 283° West 436 502 32,000  Level FlightAware ADS-B
Sun 07:23:52 AM 59.7650 14.8340 283° West 435 501 32,000  Level FlightAware ADS-B
Sun 07:24:52 AM 59.7910 14.5990 282° West 435 501 32,000  Level FlightAware ADS-B
Sun 07:25:16 AM 59.8010 14.5070 282° West 434 499 32,000  Level FlightAware ADS-B
Sun 07:26:01 AM 59.8210 14.3300 283° West 432 497 32,000  Level FlightAware ADS-B
Sun 07:26:46 AM 59.8390 14.1550 282° West 430 495 32,000  Level FlightAware ADS-B
Sun 07:27:34 AM 59.8590 13.9720 282° West 430 495 32,000  Level FlightAware ADS-B
Sun 07:28:46 AM 59.8880 13.6970 282° West 426 490 32,000  Level FlightAware ADS-B
Sun 07:29:19 AM 59.9010 13.5710 282° West 424 488 32,000  Level FlightAware ADS-B
Sun 07:30:26 AM 59.9270 13.3130 281° West 423 487 32,000  Level FlightAware ADS-B
Sun 07:31:07 AM 59.9430 13.1600 282° West 423 487 32,000  Level FlightAware ADS-B
Sun 07:31:35 AM 59.9570 13.0510 284° West 427 491 32,000  Level FlightAware ADS-B
Sun 07:32:16 AM 59.9790 12.8990 286° West 433 498 32,000  Level FlightAware ADS-B
Sun 07:32:46 AM 59.9970 12.7800 287° West 435 501 32,000  Level FlightAware ADS-B
Sun 07:33:48 AM 60.0320 12.5490 287° West 433 498 32,000  Level FlightAware ADS-B
Sun 07:34:36 AM 60.0590 12.3670 287° West 432 497 32,000 65 Level FlightAware ADS-B
Sun 07:35:20 AM 60.0840 12.1950 286° West 433 498 32,100 614 Climbing FlightAware ADS-B
Sun 07:36:04 AM 60.1070 12.0300 286° West 432 497 32,900 1,167 Climbing FlightAware ADS-B
Sun 07:36:32 AM 60.1220 11.9210 285° West 428 493 33,500 971 Climbing FlightAware ADS-B
Sun 07:37:12 AM 60.1440 11.7690 286° West 428 493 34,000 366 Climbing FlightAware ADS-B
Sun 07:37:54 AM 60.1670 11.6020 286° West 429 494 34,000  Level FlightAware ADS-B
Sun 07:38:38 AM 60.1900 11.4320 285° West 432 497 34,000  Level FlightAware ADS-B
Sun 07:39:10 AM 60.2070 11.3100 286° West 432 497 34,000  Level FlightAware ADS-B
Sun 07:39:47 AM 60.2260 11.1670 285° West 432 497 34,000  Level FlightAware ADS-B
Sun 07:40:31 AM 60.2480 11.0040 285° West 430 495 34,000  Level FlightAware ADS-B
Sun 07:41:07 AM 60.2670 10.8590 285° West 431 496 34,000  Level FlightAware ADS-B
Sun 07:41:51 AM 60.2890 10.6890 285° West 429 494 34,000  Level FlightAware ADS-B
Sun 07:42:39 AM 60.3120 10.5100 285° West 426 490 34,000  Level FlightAware ADS-B
Sun 07:43:13 AM 60.3300 10.3730 285° West 426 490 34,000  Level FlightAware ADS-B
Sun 07:43:51 AM 60.3480 10.2260 284° West 424 488 34,000  Level FlightAware ADS-B
Sun 07:45:05 AM 60.3840 9.9420 285° West 429 494 34,000  Level FlightAware ADS-B
Sun 07:45:41 AM 60.4010 9.7990 284° West 431 496 34,000  Level FlightAware ADS-B
Sun 07:46:21 AM 60.4200 9.6450 284° West 433 498 34,000  Level FlightAware ADS-B
Sun 07:47:01 AM 60.4390 9.4870 284° West 433 498 34,000  Level FlightAware ADS-B
Sun 07:47:35 AM 60.4550 9.3530 284° West 431 496 34,000  Level FlightAware ADS-B
Sun 07:48:21 AM 60.4760 9.1730 283° West 433 498 34,000  Level FlightAware ADS-B
Sun 07:49:01 AM 60.4950 9.0160 284° West 436 502 34,000  Level FlightAware ADS-B
Sun 07:49:33 AM 60.5090 8.8900 283° West 438 504 34,000  Level FlightAware ADS-B
Sun 07:50:17 AM 60.5290 8.7120 283° West 440 506 34,000  Level FlightAware ADS-B
Sun 07:50:57 AM 60.5470 8.5550 283° West 443 510 34,000  Level FlightAware ADS-B
Sun 07:51:45 AM 60.5690 8.3610 283° West 444 511 34,000  Level FlightAware ADS-B
Sun 07:52:43 AM 60.5950 8.1170 282° West 446 513 34,000  Level FlightAware ADS-B
Sun 07:53:09 AM 60.6070 8.0130 283° West 448 516 34,000  Level FlightAware ADS-B
Sun 07:53:49 AM 60.6240 7.8480 282° West 449 517 34,000  Level FlightAware ADS-B
Sun 07:54:56 AM 60.6536 7.5689 282° West 452 520 34,000  Level FlightAware ADS-B
Sun 07:55:27 AM 60.6667 7.4422 282° West 454 522 34,000  Level FlightAware ADS-B
Sun 07:56:06 AM 60.6836 7.2765 282° West 455 524 34,000  Level FlightAware ADS-B
Sun 07:56:47 AM 60.7008 7.1073 282° West 453 521 34,000  Level FlightAware ADS-B
Sun 07:57:27 AM 60.7174 6.9404 282° West 449 517 34,000  Level FlightAware ADS-B
Sun 07:58:06 AM 60.7330 6.7804 281° West 445 512 34,000  Level FlightAware ADS-B
Sun 07:58:37 AM 60.7455 6.6530 281° West 440 506 34,000  Level FlightAware ADS-B
Sun 07:59:07 AM 60.7571 6.5316 281° West 435 501 34,000  Level FlightAware ADS-B
Sun 07:59:46 AM 60.7722 6.3721 281° West 433 498 34,000  Level FlightAware ADS-B
Sun 08:00:17 AM 60.7835 6.2511 281° West 430 495 34,000  Level FlightAware ADS-B
Sun 08:00:47 AM 60.7946 6.1309 281° West 429 494 34,000  Level FlightAware ADS-B
Sun 08:01:25 AM 60.8086 5.9780 281° West 430 495 34,000  Level FlightAware ADS-B
Sun 08:01:55 AM 60.8196 5.8579 281° West 433 498 34,000  Level FlightAware ADS-B
Sun 08:02:25 AM 60.8306 5.7353 281° West 436 502 34,000  Level FlightAware ADS-B
Sun 08:03:30 AM 60.8530 5.4780 280° West 439 505 34,000  Level FlightAware ADS-B
Sun 08:04:00 AM 60.8645 5.3390 280° West  Level Estimated
Sun 08:04:16 AM 60.8690 5.2910 280° West 444 511 34,000  Level FlightAware ADS-B
Sun 08:04:57 AM 60.8840 5.1190 280° West 449 517 34,000  Level FlightAware ADS-B
Sun 08:05:36 AM 60.8980 4.9550 280° West 452 520 34,000  Level FlightAware ADS-B
Sun 08:06:13 AM 60.9110 4.7990 280° West 454 522 34,000  Level FlightAware ADS-B
Sun 08:06:41 AM 60.9200 4.6790 279° West 455 524 34,000  Level FlightAware ADS-B
Sun 08:07:39 AM 60.9400 4.4310 280° West 454 522 34,000  Level FlightAware ADS-B
Sun 08:08:14 AM 60.9520 4.2840 280° West 454 522 34,000  Level FlightAware ADS-B
Sun 08:08:51 AM 60.9640 4.1240 279° West 454 522 34,000  Level FlightAware ADS-B
Sun 08:09:35 AM 60.9780 3.9400 279° West 454 522 34,000  Level FlightAware ADS-B
Sun 08:10:13 AM 60.9910 3.7710 279° West 454 522 34,000  Level FlightAware ADS-B
Sun 08:10:36 AM 60.9980 3.6760 279° West 452 520 34,000  Level FlightAware ADS-B
Sun 08:11:13 AM 61.0090 3.5230 279° West 452 520 34,000  Level FlightAware ADS-B
Sun 08:12:07 AM 61.0250 3.2910 278° West 451 519 34,000  Level FlightAware ADS-B
Sun 08:12:46 AM 61.0370 3.1260 279° West 450 518 34,000  Level FlightAware ADS-B
Sun 08:13:22 AM 61.0470 2.9710 278° West 451 519 34,000  Level FlightAware ADS-B
Sun 08:14:02 AM 61.0580 2.8060 278° West 451 519 34,000  Level FlightAware ADS-B
Sun 08:14:44 AM 61.0700 2.6190 278° West 450 518 34,000  Level FlightAware ADS-B
Sun 08:15:52 AM 61.0890 2.3330 278° West 452 520 34,000  Level FlightAware ADS-B
Sun 08:16:35 AM 61.1000 2.1520 277° West 453 521 34,000  Level FlightAware ADS-B
Sun 08:17:16 AM 61.1110 1.9700 277° West 453 521 34,000  Level FlightAware ADS-B
Sun 08:17:53 AM 61.1210 1.8100 277° West 454 522 34,000  Level FlightAware ADS-B
Sun 08:18:32 AM 61.1300 1.6430 276° West 453 521 34,000  Level FlightAware ADS-B
Sun 08:19:13 AM 61.1400 1.4680 277° West 452 520 34,000  Level FlightAware ADS-B
Sun 08:19:57 AM 61.1510 1.2800 277° West 451 519 34,000  Level FlightAware ADS-B
Sun 08:20:36 AM 61.1600 1.1150 277° West 450 518 34,000  Level FlightAware ADS-B
Sun 08:21:13 AM 61.1680 0.9570 276° West 450 518 34,000  Level FlightAware ADS-B
Sun 08:21:56 AM 61.1770 0.7710 276° West 448 516 34,000  Level FlightAware ADS-B
Sun 08:22:37 AM 61.1860 0.5980 276° West 448 516 34,000  Level FlightAware ADS-B
Sun 08:23:26 AM 61.1960 0.3870 276° West 447 514 34,000  Level FlightAware ADS-B
Sun 08:24:11 AM 61.2050 0.2030 276° West 446 513 34,000  Level FlightAware ADS-B
Sun 08:25:06 AM 61.2240 -0.0340 280° West 455 524 34,000  Level FlightAware ADS-B
Sun 08:25:52 AM 61.2640 -0.2200 294° West 460 529 34,000  Level FlightAware ADS-B
Sun 08:26:35 AM 61.3030 -0.3930 295° West 461 531 34,000  Level FlightAware ADS-B
Sun 08:27:08 AM 61.3320 -0.5250 295° West 461 531 34,000  Level FlightAware ADS-B
Sun 08:27:48 AM 61.3680 -0.6870 295° West 463 533 34,000  Level FlightAware ADS-B
Sun 08:28:32 AM 61.4070 -0.8630 295° West 463 533 34,000  Level FlightAware ADS-B
Sun 08:29:13 AM 61.4420 -1.0240 295° West 463 533 34,000  Level FlightAware ADS-B
Sun 08:29:57 AM 61.4820 -1.2090 294° West 463 533 34,000  Level FlightAware ADS-B
Sun 08:30:40 AM 61.5190 -1.3830 294° West 464 534 34,000  Level FlightAware ADS-B
Sun 08:31:21 AM 61.5540 -1.5520 294° West 466 536 34,000  Level FlightAware ADS-B
Sun 08:31:51 AM 61.5810 -1.6780 294° West 466 536 34,000  Level FlightAware ADS-B
Sun 08:32:33 AM 61.6170 -1.8510 294° West 465 535 34,000  Level FlightAware ADS-B
Sun 08:33:16 AM 61.6540 -2.0280 294° West 465 535 34,000  Level FlightAware ADS-B
Sun 08:34:03 AM 61.6940 -2.2260 293° West 465 535 34,000  Level FlightAware ADS-B
Sun 08:34:44 AM 61.7270 -2.3860 294° West 465 535 34,000  Level FlightAware ADS-B
Sun 08:35:24 AM 61.7610 -2.5540 293° West 464 534 34,000  Level FlightAware ADS-B
Sun 08:36:09 AM 61.8000 -2.7480 293° West 463 533 34,000  Level FlightAware ADS-B
Sun 08:36:54 AM 61.8320 -2.9150 292° West 463 533 34,000  Level FlightAware ADS-B
Sun 08:37:30 AM 61.8570 -3.0440 292° West 463 533 34,000  Level FlightAware ADS-B
Sun 08:38:05 AM 61.8940 -3.2250 294° West 465 535 34,000  Level FlightAware ADS-B
Sun 08:38:46 AM 61.9250 -3.3880 292° West 465 535 34,000  Level FlightAware ADS-B
Sun 08:39:22 AM 61.9500 -3.5170 292° West 465 535 34,000  Level FlightAware ADS-B
Sun 08:40:10 AM 61.9820 -3.6900 292° West 465 535 34,000  Level FlightAware ADS-B
Sun 08:40:46 AM 62.0070 -3.8200 292° West 465 535 34,000  Level FlightAware ADS-B
Sun 08:41:15 AM 62.0460 -4.0260 292° West 463 533 34,000  Level FlightAware ADS-B
Sun 08:42:08 AM 62.0810 -4.2180 291° West 463 533 34,000  Level FlightAware ADS-B
Sun 08:42:42 AM 62.1030 -4.3420 291° West 463 533 34,000  Level FlightAware ADS-B
Sun 08:43:19 AM 62.1270 -4.4760 291° West 463 533 34,000  Level FlightAware ADS-B
Sun 08:43:55 AM 62.1510 -4.6070 291° West 463 533 34,000  Level FlightAware ADS-B
Sun 08:44:31 AM 62.1740 -4.7380 291° West 463 533 34,000  Level FlightAware ADS-B
Sun 08:45:20 AM 62.2060 -4.9170 291° West 463 533 34,000  Level FlightAware ADS-B
Sun 08:45:54 AM 62.2620 -5.2140 292° West 459 528 34,000  Level FlightAware ADS-B
Sun 08:46:57 AM 62.3010 -5.4440 290° West 459 528 34,000  Level FlightAware ADS-B
Sun 08:47:45 AM 62.3300 -5.6190 290° West 459 528 34,000  Level FlightAware ADS-B
Sun 08:48:21 AM 62.3700 -5.8380 292° West 459 528 34,000  Level FlightAware ADS-B
Sun 08:49:03 AM 62.3960 -5.9940 290° West 459 528 34,000  Level FlightAware ADS-B
Sun 08:49:39 AM 62.4180 -6.1260 290° West 459 528 34,000  Level FlightAware ADS-B
Sun 08:50:11 AM 62.4460 -6.2920 290° West 460 529 34,000  Level FlightAware ADS-B
Sun 08:50:36 AM 62.4600 -6.3850 288° West 460 529 34,000  Level FlightAware ADS-B
Sun 08:51:24 AM 62.4980 -6.6140 290° West 460 529 34,000  Level FlightAware ADS-B
Sun 08:52:12 AM 62.5260 -6.7920 289° West 460 529 34,000  Level FlightAware ADS-B
Sun 08:52:48 AM 62.5470 -6.9250 289° West 460 529 34,000  Level FlightAware ADS-B
Sun 08:53:36 AM 62.5760 -7.1030 290° West 460 529 34,000  Level FlightAware ADS-B
Sun 08:54:12 AM 62.5970 -7.2370 289° West 460 529 34,000  Level FlightAware ADS-B
Sun 08:55:12 AM 62.6320 -7.4600 289° West 460 529 34,000  Level FlightAware ADS-B
Sun 08:56:37 AM 62.5240 -6.7760 109° East 461 531 34,000  Level FlightAware ADS-B
Sun 08:57:25 AM 62.5520 -6.9540 289° West 461 531 34,000  Level FlightAware ADS-B
Sun 08:58:01 AM 62.5730 -7.0880 289° West 461 531 34,000  Level FlightAware ADS-B
Sun 08:58:37 AM 62.5950 -7.2220 290° West 461 531 34,000  Level FlightAware ADS-B
Sun 09:01:00 AM 62.5839 -7.8626 268° West  Level Estimated
Sun 09:02:00 AM 62.5783 -8.1312 268° West  Level Estimated
Sun 09:03:00 AM 62.5723 -8.3997 267° West  Level Estimated
Sun 09:03:47 AM 62.9940 -9.9510 267° West 472 543 34,000  Level FlightAware ADS-B
Sun 09:04:00 AM 62.5657 -8.6681 267° West  Level Estimated
Sun 09:04:29 AM 63.0200 -10.1440 287° West 472 543 34,000  Level FlightAware ADS-B
Sun 09:05:09 AM 63.0450 -10.3240 287° West 471 542 34,000  Level FlightAware ADS-B
Sun 09:05:54 AM 63.0730 -10.5300 287° West 467 537 34,000  Level FlightAware ADS-B
Sun 09:06:33 AM 63.0970 -10.7110 286° West 466 536 34,000  Level FlightAware ADS-B
Sun 09:07:13 AM 63.1210 -10.8900 287° West 464 534 34,000  Level FlightAware ADS-B
Sun 09:07:57 AM 63.1480 -11.0940 286° West 462 532 34,000  Level FlightAware ADS-B
Sun 09:08:38 AM 63.1710 -11.2740 286° West 460 529 34,000  Level FlightAware ADS-B
Sun 09:09:18 AM 63.1950 -11.4600 286° West 460 529 34,000  Level FlightAware ADS-B
Sun 09:09:58 AM 63.2170 -11.6370 285° West 460 529 34,000  Level FlightAware ADS-B
Sun 09:10:30 AM 63.2350 -11.7830 285° West 459 528 34,000  Level FlightAware ADS-B
Sun 09:11:05 AM 63.2550 -11.9390 286° West 460 529 34,000  Level FlightAware ADS-B
Sun 09:11:52 AM 63.2810 -12.1540 285° West 460 529 34,000  Level FlightAware ADS-B
Sun 09:12:36 AM 63.3060 -12.3540 286° West 461 531 34,000  Level FlightAware ADS-B
Sun 09:13:06 AM 63.3220 -12.4930 284° West 461 531 34,000  Level FlightAware ADS-B
Sun 09:13:48 AM 63.3450 -12.6860 285° West 463 533 34,000  Level FlightAware ADS-B
Sun 09:14:50 AM 63.3780 -12.9720 285° West 464 534 34,000  Level FlightAware ADS-B
Sun 09:15:29 AM 63.3990 -13.1510 285° West 466 536 34,000  Level FlightAware ADS-B
Sun 09:16:05 AM 63.4180 -13.3220 284° West 466 536 34,000  Level FlightAware ADS-B
Sun 09:16:41 AM 63.4370 -13.4870 285° West 466 536 34,000  Level FlightAware ADS-B
Sun 09:17:53 AM 63.4740 -13.8230 284° West 469 540 34,000  Level FlightAware ADS-B
Sun 09:18:25 AM 63.4900 -13.9730 284° West 469 540 34,000  Level FlightAware ADS-B
Sun 09:19:01 AM 63.5080 -14.1450 283° West 469 540 34,000  Level FlightAware ADS-B
Sun 09:19:49 AM 63.5320 -14.3710 283° West 470 541 34,000  Level FlightAware ADS-B
Sun 09:20:25 AM 63.5500 -14.5420 283° West 471 542 34,000  Level FlightAware ADS-B
Sun 09:21:07 AM 63.5700 -14.7420 283° West 471 542 34,000  Level FlightAware ADS-B
Sun 09:21:43 AM 63.5870 -14.9110 283° West 471 542 34,000  Level FlightAware ADS-B
Sun 09:22:23 AM 63.6070 -15.1050 283° West 471 542 34,000  Level FlightAware ADS-B
Sun 09:22:53 AM 63.6200 -15.2460 282° West 472 543 34,000  Level FlightAware ADS-B
Sun 09:23:32 AM 63.6350 -15.4060 282° West 472 543 34,000  Level FlightAware ADS-B
Sun 09:25:07 AM 63.6770 -15.8380 283° West 473 544 34,000  Level FlightAware ADS-B
Sun 09:25:38 AM 63.6950 -16.0340 282° West 473 544 34,000  Level FlightAware ADS-B
Sun 09:26:14 AM 63.7110 -16.2090 282° West 474 545 34,000  Level FlightAware ADS-B
Sun 09:26:52 AM 63.7270 -16.3920 281° West 474 545 34,000  Level FlightAware ADS-B
Sun 09:27:24 AM 63.7410 -16.5460 282° West 474 545 34,000  Level FlightAware ADS-B
Sun 09:28:02 AM 63.7570 -16.7280 281° West 473 544 34,000  Level FlightAware ADS-B
Sun 09:28:56 AM 63.7790 -16.9920 281° West 471 542 34,000  Level FlightAware ADS-B
Sun 09:29:37 AM 63.7950 -17.1810 281° West 471 542 34,000  Level FlightAware ADS-B
Sun 09:30:13 AM 63.8090 -17.3540 280° West 472 543 34,000  Level FlightAware ADS-B
Sun 09:30:44 AM 63.8230 -17.5180 281° West 471 542 34,000  Level FlightAware ADS-B
Sun 09:31:28 AM 63.8400 -17.7330 280° West 471 542 34,000  Level FlightAware ADS-B
Sun 09:32:10 AM 63.8550 -17.9330 280° West 471 542 34,000  Level FlightAware ADS-B
Sun 09:32:57 AM 63.8730 -18.1590 280° West 469 540 34,000  Level FlightAware ADS-B
Sun 09:33:37 AM 63.8870 -18.3530 279° West 469 540 34,000  Level FlightAware ADS-B
Sun 09:34:18 AM 63.9020 -18.5510 280° West 469 540 34,000  Level FlightAware ADS-B
Sun 09:34:54 AM 63.9150 -18.7280 280° West 468 539 34,000  Level FlightAware ADS-B
Sun 09:35:34 AM 63.9280 -18.9190 279° West 467 537 34,000  Level FlightAware ADS-B
Sun 09:36:14 AM 63.9410 -19.1040 279° West 467 537 34,000  Level FlightAware ADS-B
Sun 09:36:46 AM 63.9520 -19.2660 279° West 467 537 34,000  Level FlightAware ADS-B
Sun 09:37:36 AM 63.9690 -19.5130 279° West 467 537 34,000  Level FlightAware ADS-B
Sun 09:38:37 AM 63.9880 -19.8040 279° West 464 534 34,000  Level FlightAware ADS-B
Sun 09:39:18 AM 64.0030 -20.0050 280° West 464 534 34,000  Level FlightAware ADS-B
Sun 09:40:02 AM 64.0280 -20.2080 286° West 463 533 34,000  Level FlightAware ADS-B
Sun 09:40:42 AM 64.0540 -20.3940 288° West 463 533 34,000  Level FlightAware ADS-B
Sun 09:41:18 AM 64.0770 -20.5640 287° West 463 533 34,000  Level FlightAware ADS-B
Sun 09:41:54 AM 64.0990 -20.7320 287° West 464 534 34,000  Level FlightAware ADS-B
Sun 09:42:34 AM 64.1240 -20.9190 287° West 463 533 34,000  Level FlightAware ADS-B
Sun 09:43:08 AM 64.1450 -21.0760 287° West 463 533 34,000  Level FlightAware ADS-B
Sun 09:43:50 AM 64.1700 -21.2730 286° West 462 532 34,000  Level FlightAware ADS-B
Sun 09:44:30 AM 64.1940 -21.4620 286° West 462 532 34,000  Level FlightAware ADS-B
Sun 09:45:10 AM 64.2180 -21.6470 287° West 461 531 34,000  Level FlightAware ADS-B
Sun 09:45:40 AM 64.2350 -21.7910 285° West 460 529 34,000  Level FlightAware ADS-B
Sun 09:46:25 AM 64.2610 -21.9970 286° West 459 528 34,000  Level FlightAware ADS-B
Sun 09:47:09 AM 64.2860 -22.2040 286° West 458 527 34,000  Level FlightAware ADS-B
Sun 09:47:38 AM 64.3030 -22.3420 286° West 458 527 34,000  Level FlightAware ADS-B
Sun 09:48:24 AM 64.3290 -22.5600 285° West 456 525 34,000  Level FlightAware ADS-B
Sun 09:49:01 AM 64.3490 -22.7290 285° West 456 525 34,000  Level FlightAware ADS-B
Sun 09:49:38 AM 64.3690 -22.9020 285° West 455 524 34,000  Level FlightAware ADS-B
Sun 09:50:23 AM 64.3930 -23.1160 285° West 456 525 34,000  Level FlightAware ADS-B
Sun 09:50:55 AM 64.4100 -23.2650 285° West 456 525 34,000  Level FlightAware ADS-B
Sun 09:51:39 AM 64.4330 -23.4740 284° West 456 525 34,000  Level FlightAware ADS-B
Sun 09:52:10 AM 64.4490 -23.6170 285° West 456 525 34,000  Level FlightAware ADS-B
Sun 09:52:48 AM 64.4690 -23.7960 285° West 455 524 34,000  Level FlightAware ADS-B
Sun 09:53:29 AM 64.4900 -23.9910 284° West 455 524 34,000  Level FlightAware ADS-B
Sun 09:54:05 AM 64.5080 -24.1610 284° West 454 522 34,000  Level FlightAware ADS-B
Sun 09:54:43 AM 64.5270 -24.3410 284° West 453 521 34,000  Level FlightAware ADS-B
Sun 09:55:13 AM 64.5420 -24.4830 284° West 453 521 34,000  Level FlightAware ADS-B
Sun 09:55:51 AM 64.5600 -24.6630 283° West 452 520 34,000  Level FlightAware ADS-B
Sun 09:56:31 AM 64.5790 -24.8490 283° West 451 519 34,000  Level FlightAware ADS-B
Sun 09:57:07 AM 64.5960 -25.0210 283° West 452 520 34,000  Level FlightAware ADS-B
Sun 09:57:42 AM 64.6110 -25.1710 283° West 453 521 34,000  Level FlightAware ADS-B
Sun 09:58:13 AM 64.6260 -25.3240 283° West 453 521 34,000  Level FlightAware ADS-B
Sun 09:59:29 AM 64.6610 -25.6940 283° West 453 521 34,000  Level FlightAware ADS-B
Sun 10:00:06 AM 64.6780 -25.8730 283° West 452 520 34,000  Level FlightAware ADS-B
Sun 10:00:43 AM 64.6940 -26.0450 282° West 452 520 34,000  Level FlightAware ADS-B
Sun 10:01:16 AM 64.7080 -26.2030 282° West 450 518 34,000  Level FlightAware ADS-B
Sun 10:02:05 AM 64.7280 -26.4270 282° West 449 517 34,000  Level FlightAware ADS-B
Sun 10:02:36 AM 64.7420 -26.5780 282° West 448 516 34,000  Level FlightAware ADS-B
Sun 10:03:17 AM 64.7590 -26.7750 282° West 445 512 34,000  Level FlightAware ADS-B
Sun 10:04:03 AM 64.7770 -26.9900 281° West 445 512 34,000  Level FlightAware ADS-B
Sun 10:04:43 AM 64.7930 -27.1820 281° West 445 512 34,000  Level FlightAware ADS-B
Sun 10:05:27 AM 64.8100 -27.3870 281° West 445 512 34,000  Level FlightAware ADS-B
Sun 10:06:00 AM 64.8230 -27.5410 281° West 445 512 34,000  Level FlightAware ADS-B
Sun 10:06:49 AM 64.8390 -27.7440 281° West 446 513 34,000  Level FlightAware ADS-B
Sun 10:07:24 AM 64.8550 -27.9460 281° West 449 517 34,000  Level FlightAware ADS-B
Sun 10:08:12 AM 64.8730 -28.1730 281° West 451 519 34,000  Level FlightAware ADS-B
Sun 10:08:54 AM 64.8880 -28.3790 280° West 452 520 34,000  Level FlightAware ADS-B
Sun 10:09:31 AM 64.9000 -28.5340 280° West 452 520 34,000  Level FlightAware ADS-B
Sun 10:10:15 AM 64.9170 -28.7680 280° West 453 521 34,000  Level FlightAware ADS-B
Sun 10:10:45 AM 64.9270 -28.9130 279° West 454 522 34,000  Level FlightAware ADS-B
Sun 10:11:01 AM 64.9330 -28.9930 280° West 454 522 34,000  Level FlightAware ADS-B
Sun 10:12:00 AM 64.9520 -29.2730 279° West 453 521 34,000  Level FlightAware ADS-B
Sun 10:13:18 AM 64.9780 -29.6580 279° West 448 516 34,000  Level FlightAware ADS-B
Sun 10:13:55 AM 64.9870 -29.8110 278° West 448 516 34,000  Level FlightAware ADS-B
Sun 10:14:33 AM 65.0000 -30.0140 279° West 438 504 34,000  Level FlightAware ADS-B
Sun 10:15:15 AM 65.0070 -30.2140 275° West 423 487 34,000  Level FlightAware ADS-B
Sun 10:15:51 AM 65.0120 -30.3760 274° West 416 479 34,000  Level FlightAware ADS-B
Sun 10:16:23 AM 65.0160 -30.5200 274° West 415 478 34,000  Level FlightAware ADS-B
Sun 10:16:56 AM 65.0210 -30.6710 275° West 420 483 34,000  Level FlightAware ADS-B
Sun 10:17:27 AM 65.0250 -30.8130 274° West 423 487 34,000  Level FlightAware ADS-B
Sun 10:18:21 AM 65.0300 -31.0290 273° West 423 487 34,000  Level FlightAware ADS-B
Sun 10:18:57 AM 65.0330 -31.1710 273° West 423 487 34,000  Level FlightAware ADS-B
Sun 10:19:45 AM 65.0370 -31.3600 273° West 423 487 34,000  Level FlightAware ADS-B
Sun 10:20:34 AM 65.0420 -31.5530 274° West 423 487 34,000  Level FlightAware ADS-B
Sun 10:20:58 AM 65.0440 -31.6470 273° West 423 487 34,000  Level FlightAware ADS-B
Sun 10:21:44 AM 65.0480 -31.8280 273° West 423 487 34,000  Level FlightAware ADS-B
Sun 10:22:21 AM 65.0510 -31.9740 273° West 423 487 34,000  Level FlightAware ADS-B
Sun 10:22:57 AM 65.0540 -32.1160 273° West 423 487 34,000  Level FlightAware ADS-B
Sun 10:23:45 AM 65.0580 -32.3050 273° West 423 487 34,000  Level FlightAware ADS-B
Sun 10:24:21 AM 65.0610 -32.4470 273° West 423 487 34,000  Level FlightAware ADS-B
Sun 10:24:57 AM 65.0640 -32.5880 273° West 423 487 34,000  Level FlightAware ADS-B
Sun 10:25:45 AM 65.0690 -32.7780 274° West 423 487 34,000  Level FlightAware ADS-B
Sun 10:26:23 AM 65.0720 -32.9270 273° West 423 487 34,000  Level FlightAware ADS-B
Sun 10:27:11 AM 65.0760 -33.1170 273° West 423 487 34,000  Level FlightAware ADS-B
Sun 10:27:35 AM 65.0780 -33.2110 273° West 423 487 34,000  Level FlightAware ADS-B
Sun 10:30:00 AM 64.9701 -33.8720 249° West  Level FlightAware Approximate
Sun 10:31:00 AM 64.9246 -34.1439 249° West  Level FlightAware Approximate
Sun 10:32:00 AM 64.8786 -34.4150 248° West  Level FlightAware Approximate
Sun 10:33:00 AM 64.8321 -34.6850 248° West  Level FlightAware Approximate
Sun 10:34:00 AM 64.7851 -34.9542 248° West  Level FlightAware Approximate
Sun 10:35:00 AM 64.7377 -35.2224 248° West  Level FlightAware Approximate
Sun 10:36:00 AM 64.6898 -35.4897 247° West  Level FlightAware Approximate
Sun 10:37:00 AM 64.6413 -35.7560 247° West  Level FlightAware Approximate
Sun 10:38:00 AM 64.5924 -36.0213 247° West  Level FlightAware Approximate
Sun 10:39:00 AM 64.5431 -36.2857 247° West  Level FlightAware Approximate
Sun 10:40:00 AM 64.4932 -36.5492 246° West  Level FlightAware Approximate
Sun 10:41:00 AM 64.4429 -36.8116 246° West  Level FlightAware Approximate
Sun 10:42:00 AM 64.3921 -37.0732 246° West  Level FlightAware Approximate
Sun 10:43:00 AM 64.3409 -37.3337 246° West  Level FlightAware Approximate
Sun 10:44:00 AM 64.2892 -37.5933 245° Southwest  Level FlightAware Approximate
Sun 10:45:00 AM 64.2370 -37.8519 245° Southwest  Level FlightAware Approximate
Sun 10:46:00 AM 64.1849 -38.1132 246° West  Level FlightAware Approximate
Sun 10:47:00 AM 64.1351 -38.3734 246° West  Level FlightAware Approximate
Sun 10:48:00 AM 64.0849 -38.6325 246° West  Level FlightAware Approximate
Sun 10:49:00 AM 64.0342 -38.8908 246° West  Level FlightAware Approximate
Sun 10:50:00 AM 63.9831 -39.1481 246° West  Level FlightAware Approximate
Sun 10:51:00 AM 63.9315 -39.4045 245° Southwest  Level FlightAware Approximate
Sun 10:52:00 AM 63.8794 -39.6599 245° Southwest  Level FlightAware Approximate
Sun 10:53:00 AM 63.8269 -39.9144 245° Southwest  Level FlightAware Approximate
Sun 10:54:00 AM 63.7740 -40.1679 245° Southwest  Level FlightAware Approximate
Sun 10:55:00 AM 63.7206 -40.4205 245° Southwest  Level FlightAware Approximate
Sun 10:56:00 AM 63.6668 -40.6721 244° Southwest  Level FlightAware Approximate
Sun 10:57:00 AM 63.6125 -40.9228 244° Southwest  Level FlightAware Approximate
Sun 10:58:00 AM 63.5578 -41.1725 244° Southwest  Level FlightAware Approximate
Sun 10:59:00 AM 63.5027 -41.4212 244° Southwest  Level FlightAware Approximate
Sun 11:00:00 AM 63.4472 -41.6690 243° Southwest  Level FlightAware Approximate
Sun 11:01:00 AM 63.3912 -41.9158 243° Southwest  Level FlightAware Approximate
Sun 11:02:00 AM 63.3348 -42.1617 243° Southwest  Level FlightAware Approximate
Sun 11:03:00 AM 63.2780 -42.4066 243° Southwest  Level FlightAware Approximate
Sun 11:04:00 AM 63.2207 -42.6505 243° Southwest  Level FlightAware Approximate
Sun 11:05:00 AM 63.1631 -42.8934 242° Southwest  Level FlightAware Approximate
Sun 11:06:00 AM 63.1050 -43.1354 242° Southwest  Level FlightAware Approximate
Sun 11:07:00 AM 63.0465 -43.3764 242° Southwest  Level FlightAware Approximate
Sun 11:08:00 AM 62.9876 -43.6165 242° Southwest  Level FlightAware Approximate
Sun 11:09:00 AM 62.9283 -43.8556 241° Southwest  Level FlightAware Approximate
Sun 11:10:00 AM 62.8686 -44.0937 241° Southwest  Level FlightAware Approximate
Sun 11:11:00 AM 62.8085 -44.3308 241° Southwest  Level FlightAware Approximate
Sun 11:12:00 AM 62.7480 -44.5670 241° Southwest  Level FlightAware Approximate
Sun 11:13:00 AM 62.6871 -44.8022 241° Southwest  Level FlightAware Approximate
Sun 11:14:00 AM 62.6259 -45.0364 240° Southwest  Level FlightAware Approximate
Sun 11:15:00 AM 62.5642 -45.2697 240° Southwest  Level FlightAware Approximate
Sun 11:16:00 AM 62.5021 -45.5020 240° Southwest  Level FlightAware Approximate
Sun 11:17:00 AM 62.4397 -45.7333 240° Southwest  Level FlightAware Approximate
Sun 11:18:00 AM 62.3769 -45.9637 240° Southwest  Level FlightAware Approximate
Sun 11:19:00 AM 62.3137 -46.1931 239° Southwest  Level FlightAware Approximate
Sun 11:20:00 AM 62.2501 -46.4215 239° Southwest  Level FlightAware Approximate
Sun 11:21:00 AM 62.1861 -46.6489 239° Southwest  Level FlightAware Approximate
Sun 11:22:00 AM 62.1218 -46.8755 239° Southwest  Level FlightAware Approximate
Sun 11:23:00 AM 62.0571 -47.1010 239° Southwest  Level FlightAware Approximate
Sun 11:24:00 AM 61.9922 -47.3258 238° Southwest  Level FlightAware Approximate
Sun 11:25:00 AM 61.9270 -47.5497 238° Southwest  Level FlightAware Approximate
Sun 11:26:00 AM 61.8614 -47.7726 238° Southwest  Level FlightAware Approximate
Sun 11:27:00 AM 61.7955 -47.9946 238° Southwest  Level FlightAware Approximate
Sun 11:28:00 AM 61.7292 -48.2157 238° Southwest  Level FlightAware Approximate
Sun 11:29:00 AM 61.6626 -48.4358 238° Southwest  Level FlightAware Approximate
Sun 11:30:00 AM 61.5956 -48.6549 237° Southwest  Level FlightAware Approximate
Sun 11:31:00 AM 61.5283 -48.8731 237° Southwest  Level FlightAware Approximate
Sun 11:31:07 AM 63.9380 -50.4010 237° Southwest 429 494 34,000  Level FlightAware ADS-B
Sun 11:32:16 AM 63.8920 -50.6940 250° West 430 495 34,000  Level FlightAware ADS-B
Sun 11:32:51 AM 63.8680 -50.8430 250° West 429 494 34,000  Level FlightAware ADS-B
Sun 11:33:19 AM 63.8480 -50.9630 249° West 430 495 34,000  Level FlightAware ADS-B
Sun 11:33:53 AM 63.8250 -51.1070 250° West 430 495 34,000  Level FlightAware ADS-B
Sun 11:35:01 AM 63.7780 -51.3930 250° West 432 497 34,000  Level FlightAware ADS-B
Sun 11:35:43 AM 63.7490 -51.5700 250° West 432 497 34,000  Level FlightAware ADS-B
Sun 11:36:14 AM 63.7280 -51.6970 250° West 432 497 34,000  Level FlightAware ADS-B
Sun 11:36:54 AM 63.6990 -51.8650 249° West 431 496 34,000  Level FlightAware ADS-B
Sun 11:37:37 AM 63.6680 -52.0470 249° West 431 496 34,000  Level FlightAware ADS-B
Sun 11:38:09 AM 63.6450 -52.1820 249° West 432 497 34,000  Level FlightAware ADS-B
Sun 11:38:52 AM 63.6140 -52.3600 249° West 432 497 34,000  Level FlightAware ADS-B
Sun 11:39:37 AM 63.5820 -52.5470 249° West 433 498 34,000  Level FlightAware ADS-B
Sun 11:40:24 AM 63.5470 -52.7420 248° West 434 499 34,000  Level FlightAware ADS-B
Sun 11:40:58 AM 63.5220 -52.8850 249° West 433 498 34,000  Level FlightAware ADS-B
Sun 11:41:38 AM 63.4920 -53.0500 248° West 434 499 34,000  Level FlightAware ADS-B
Sun 11:42:18 AM 63.4630 -53.2100 248° West 434 499 34,000  Level FlightAware ADS-B
Sun 11:42:54 AM 63.4350 -53.3660 248° West 435 501 34,000  Level FlightAware ADS-B
Sun 11:43:38 AM 63.4010 -53.5510 248° West 436 502 34,000  Level FlightAware ADS-B
Sun 11:44:14 AM 63.3730 -53.6990 247° West 436 502 34,000  Level FlightAware ADS-B
Sun 11:45:04 AM 63.3350 -53.9010 247° West 437 503 34,000  Level FlightAware ADS-B
Sun 11:45:41 AM 63.3100 -54.0320 247° West 437 503 34,000  Level FlightAware ADS-B
Sun 11:46:17 AM 63.2860 -54.1580 247° West 437 503 34,000  Level FlightAware ADS-B
Sun 11:46:53 AM 63.2620 -54.2850 247° West 437 503 34,000  Level FlightAware ADS-B
Sun 11:47:41 AM 63.2300 -54.4540 247° West 437 503 34,000  Level FlightAware ADS-B
Sun 11:48:17 AM 63.2050 -54.5800 246° West 437 503 34,000  Level FlightAware ADS-B
Sun 11:49:07 AM 63.1720 -54.7550 247° West 437 503 34,000  Level FlightAware ADS-B
Sun 11:49:55 AM 63.1400 -54.9230 247° West 437 503 34,000  Level FlightAware ADS-B
Sun 11:50:19 AM 63.1230 -55.0070 246° West 437 503 34,000  Level FlightAware ADS-B
Sun 11:50:55 AM 63.0990 -55.1330 247° West 437 503 34,000  Level FlightAware ADS-B
Sun 11:51:32 AM 63.0740 -55.2630 247° West 437 503 34,000  Level FlightAware ADS-B
Sun 11:52:08 AM 63.0500 -55.3880 247° West 437 503 34,000  Level FlightAware ADS-B
Sun 11:52:45 AM 63.0250 -55.5170 247° West 437 503 34,000  Level FlightAware ADS-B
Sun 11:53:21 AM 63.0010 -55.6430 247° West 437 503 34,000  Level FlightAware ADS-B
Sun 11:54:10 AM 62.9680 -55.8140 247° West 437 503 34,000  Level FlightAware ADS-B
Sun 11:54:46 AM 62.9440 -55.9390 247° West 437 503 34,000  Level FlightAware ADS-B
Sun 11:54:58 AM 62.9360 -55.9800 247° West 437 503 34,000  Level FlightAware ADS-B
Sun 11:58:00 AM 62.7757 -56.7243 245° Southwest  Level FlightAware Approximate
Sun 11:59:00 AM 62.7220 -56.9679 244° Southwest  Level FlightAware Approximate
Sun 12:00:00 PM 62.6678 -57.2106 244° Southwest  Level FlightAware Approximate
Sun 12:01:00 PM 62.6133 -57.4524 244° Southwest  Level FlightAware Approximate
Sun 12:02:00 PM 62.5583 -57.6934 244° Southwest  Level FlightAware Approximate
Sun 12:03:00 PM 62.5029 -57.9334 244° Southwest  Level FlightAware Approximate
Sun 12:04:00 PM 62.4471 -58.1725 243° Southwest  Level FlightAware Approximate
Sun 12:05:00 PM 62.3909 -58.4108 243° Southwest  Level FlightAware Approximate
Sun 12:06:00 PM 62.3343 -58.6481 243° Southwest  Level FlightAware Approximate
Sun 12:07:00 PM 62.2773 -58.8846 243° Southwest  Level FlightAware Approximate
Sun 12:07:10 PM 62.2333 -59.1500 242° Southwest 290 334 34,000  Level Gander Center
Sun 12:08:00 PM 62.2199 -59.1202 242° Southwest  Level FlightAware Approximate
Sun 12:08:10 PM 62.1667 -59.3333 232° Southwest 420 483 34,000  Level Gander Center
Sun 12:09:00 PM 62.1621 -59.3548 242° Southwest  Level FlightAware Approximate
Sun 12:09:10 PM 62.1000 -59.5833 240° Southwest 450 518 34,600  Level Gander Center
Sun 12:10:00 PM 62.1039 -59.5886 242° Southwest  Level FlightAware Approximate
Sun 12:10:10 PM 62.0167 -59.8000 231° Southwest 450 518 35,600  Level Gander Center
Sun 12:11:00 PM 62.0453 -59.8214 242° Southwest  Level FlightAware Approximate
Sun 12:11:10 PM 61.9500 -60.0167 237° Southwest 440 506 36,000  Level Gander Center
Sun 12:12:10 PM 61.8833 -60.2333 237° Southwest 440 506 36,000  Level Gander Center
Sun 12:13:10 PM 61.8167 -60.4333 235° Southwest 440 506 36,000  Level Gander Center
Sun 12:14:10 PM 61.7667 -60.6500 244° Southwest 440 506 36,000  Level Gander Center
Sun 12:15:10 PM 61.6833 -60.8667 231° Southwest 440 506 36,000  Level Gander Center
Sun 12:16:10 PM 61.6167 -61.0667 235° Southwest 440 506 36,000  Level Gander Center
Sun 12:17:10 PM 61.5500 -61.2833 237° Southwest 440 506 36,000  Level Gander Center
Sun 12:18:10 PM 61.4667 -61.4833 229° Southwest 440 506 36,000  Level Gander Center
Sun 12:19:10 PM 61.4000 -61.7000 237° Southwest 450 518 36,000  Level Gander Center
Sun 12:20:10 PM 61.3333 -61.9000 235° Southwest 450 518 36,000  Level Gander Center
Sun 12:21:10 PM 61.2500 -62.1167 231° Southwest 440 506 36,000  Level Gander Center
Sun 12:22:10 PM 61.1833 -62.3167 235° Southwest 440 506 36,000  Level Gander Center
Sun 12:23:10 PM 61.1167 -62.5167 235° Southwest 450 518 36,000  Level Gander Center
Sun 12:24:10 PM 61.0167 -62.7167 224° Southwest 440 506 36,000  Level Gander Center
Sun 12:25:10 PM 60.9500 -62.9667 241° Southwest 450 518 36,000  Level Gander Center
Sun 12:26:10 PM 60.8833 -63.1667 236° Southwest 430 495 36,000  Level Gander Center
Sun 12:27:10 PM 60.8000 -63.3667 230° Southwest 440 506 36,000  Level Gander Center
Sun 12:28:10 PM 60.7333 -63.5333 231° Southwest 440 506 36,000  Level Gander Center
Sun 12:29:10 PM 60.6667 -63.7500 238° Southwest 440 506 36,000  Level Gander Center
Sun 12:30:10 PM 60.5833 -63.9500 230° Southwest 440 506 36,000  Level Gander Center
Sun 12:31:10 PM 60.5000 -64.1167 225° Southwest 440 506 36,000  Level Gander Center
Sun 12:32:10 PM 60.4333 -64.3167 236° Southwest 440 506 36,000  Level Gander Center
Sun 12:33:10 PM 60.3667 -64.5167 236° Southwest 440 506 36,000  Level Gander Center
Sun 12:34:10 PM 60.2833 -64.7000 228° Southwest 430 495 36,000  Level Gander Center
Sun 12:35:10 PM 60.2167 -64.9000 236° Southwest 440 506 36,000  Level Gander Center
Sun 12:36:10 PM 60.1333 -65.0833 228° Southwest 430 495 36,000  Level Gander Center
Sun 12:37:10 PM 60.0667 -65.2500 231° Southwest 430 495 36,000  Level Gander Center
Sun 12:38:10 PM 59.9500 -65.4000 213° Southwest 430 495 36,000  Level Gander Center
Sun 12:39:10 PM 59.8667 -65.5667 225° Southwest 430 495 36,000  Level Gander Center
Sun 12:40:10 PM 59.7833 -65.7167 222° Southwest 430 495 36,000  Level Gander Center
Sun 12:41:10 PM 59.6833 -65.9000 223° Southwest 430 495 36,000  Level Gander Center
Sun 12:42:10 PM 59.6000 -66.0500 222° Southwest 430 495 36,000  Level Gander Center
Sun 12:43:10 PM 59.5167 -66.2000 222° Southwest 430 495 36,000  Level Gander Center
Sun 12:44:10 PM 59.4000 -66.3500 213° Southwest 430 495 36,000  Level Gander Center
Sun 12:45:10 PM 59.3167 -66.5000 223° Southwest 430 495 36,000  Level Gander Center
Sun 12:46:10 PM 59.2333 -66.6500 223° Southwest 430 495 36,000  Level Gander Center
Sun 12:47:10 PM 59.1333 -66.8000 218° Southwest 430 495 36,000  Level Gander Center
Sun 12:48:10 PM 59.0500 -66.9500 223° Southwest 430 495 36,000  Level Gander Center
Sun 12:49:10 PM 58.9667 -67.1000 223° Southwest 430 495 36,000  Level Gander Center
Sun 12:50:10 PM 58.8667 -67.2500 218° Southwest 430 495 36,000  Level Gander Center
Sun 12:51:10 PM 58.7833 -67.4000 223° Southwest 430 495 36,000  Level Gander Center
Sun 12:52:10 PM 58.6833 -67.5333 215° Southwest 430 495 36,000  Level Gander Center
Sun 12:53:10 PM 58.6000 -67.6833 223° Southwest 430 495 36,000  Level Gander Center
Sun 12:54:10 PM 58.5167 -67.8333 223° Southwest 430 495 36,000  Level Gander Center
Sun 12:55:10 PM 58.4167 -67.9667 215° Southwest 430 495 36,000  Level Gander Center
Sun 12:56:10 PM 58.3167 -68.1167 218° Southwest 430 495 36,000  Level Gander Center
Sun 12:57:10 PM 58.2167 -68.2500 215° Southwest 430 495 36,000  Level Gander Center
Sun 12:58:10 PM 58.1500 -68.4000 230° Southwest 450 518 36,000  Level Gander Center
Sun 12:58:52 PM 58.0667 -68.4833 208° Southwest 460 529 36,000  Level Gander Center
Sun 12:59:52 PM 57.9833 -68.6167 220° Southwest 440 506 36,000  Level Gander Center
Sun 01:00:52 PM 57.8833 -68.7500 215° Southwest 430 495 36,000  Level Gander Center
Sun 01:01:52 PM 57.7833 -68.9000 219° Southwest 430 495 36,000  Level Gander Center
Sun 01:02:52 PM 57.7000 -69.0000 213° Southwest 430 495 36,000  Level Gander Center
Sun 01:03:52 PM 57.5833 -69.1333 212° Southwest 430 495 36,000  Level Gander Center
Sun 01:04:52 PM 57.5000 -69.2667 221° Southwest 430 495 36,000  Level Gander Center
Sun 01:05:52 PM 57.4000 -69.4000 216° Southwest 430 495 36,000  Level Gander Center
Sun 01:06:52 PM 57.3000 -69.5333 216° Southwest 430 495 36,000  Level Gander Center
Sun 01:07:52 PM 57.2000 -69.6667 216° Southwest 430 495 36,000  Level Gander Center
Sun 01:08:52 PM 57.0833 -69.8000 212° Southwest 430 495 36,000  Level Gander Center
Sun 01:09:52 PM 57.0000 -69.9000 213° Southwest 430 495 36,000  Level Gander Center
Sun 01:10:52 PM 56.9000 -70.0333 216° Southwest 430 495 36,000  Level Gander Center
Sun 01:11:52 PM 56.8167 -70.1667 221° Southwest 430 495 36,000  Level Gander Center
Sun 01:12:52 PM 56.7000 -70.3000 212° Southwest 430 495 36,000  Level Gander Center
Sun 01:13:52 PM 56.6167 -70.4333 221° Southwest 430 495 36,000  Level Gander Center
Sun 01:14:52 PM 56.5167 -70.5333 209° Southwest 430 495 36,000  Level Gander Center
Sun 01:15:52 PM 56.4167 -70.6500 213° Southwest 430 495 36,000  Level Gander Center
Sun 01:16:52 PM 56.3167 -70.7833 217° Southwest 430 495 36,000  Level Gander Center
Sun 01:17:52 PM 56.2167 -70.8833 209° Southwest 430 495 36,000  Level Gander Center
Sun 01:18:52 PM 56.1167 -71.0000 213° Southwest 430 495 36,000  Level Gander Center
Sun 01:19:52 PM 56.0167 -71.1333 217° Southwest 430 495 36,000  Level Gander Center
Sun 01:20:52 PM 55.9167 -71.2500 213° Southwest 430 495 36,000  Level Gander Center
Sun 01:21:52 PM 55.8167 -71.3833 217° Southwest 430 495 36,000  Level Gander Center
Sun 01:22:52 PM 55.7167 -71.4833 209° Southwest 430 495 36,000  Level Gander Center
Sun 01:23:52 PM 55.6333 -71.6000 218° Southwest 420 483 36,000  Level Gander Center
Sun 01:24:52 PM 55.5333 -71.7333 217° Southwest 420 483 36,000  Level Gander Center
Sun 01:25:52 PM 55.4333 -71.8167 205° Southwest 420 483 36,000  Level Gander Center
Sun 01:26:52 PM 55.3333 -71.9333 214° Southwest 430 495 36,000  Level Gander Center
Sun 01:27:52 PM 55.2167 -72.0667 213° Southwest 430 495 36,000  Level Gander Center
Sun 01:28:52 PM 55.1333 -72.1833 219° Southwest 420 483 36,000  Level Gander Center
Sun 01:29:52 PM 55.0333 -72.3000 214° Southwest 430 495 36,000  Level Gander Center
Sun 01:30:52 PM 54.9333 -72.4000 210° Southwest 430 495 36,000  Level Gander Center
Sun 01:31:52 PM 54.8333 -72.5167 214° Southwest 420 483 36,000  Level Gander Center
Sun 01:32:52 PM 54.7333 -72.6333 214° Southwest 430 495 36,000  Level Gander Center
Sun 01:33:52 PM 54.6333 -72.7167 206° Southwest 420 483 36,000  Level Gander Center
Sun 01:34:52 PM 54.5500 -72.8333 219° Southwest 420 483 36,000  Level Gander Center
Sun 01:35:52 PM 54.4500 -72.9667 218° Southwest 420 483 36,000  Level Gander Center
Sun 01:36:52 PM 54.3333 -73.0500 203° Southwest 420 483 36,000  Level Gander Center
Sun 01:37:52 PM 54.2500 -73.1667 219° Southwest 420 483 36,000  Level Gander Center
Sun 01:38:52 PM 54.1500 -73.2833 214° Southwest 420 483 36,000  Level Gander Center
Sun 01:39:52 PM 54.0333 -73.3833 207° Southwest 420 483 36,000  Level Gander Center
Sun 01:40:52 PM 53.9333 -73.4833 210° Southwest 420 483 36,000  Level Gander Center
Sun 01:41:52 PM 53.8500 -73.6000 220° Southwest 420 483 36,000  Level Gander Center
Sun 01:42:52 PM 53.7500 -73.7000 211° Southwest 420 483 36,000  Level Gander Center
Sun 01:43:52 PM 53.6333 -73.7833 203° Southwest 420 483 36,000  Level Gander Center
Sun 01:44:52 PM 53.5500 -73.8667 211° Southwest 420 483 36,000  Level Gander Center
Sun 01:45:52 PM 53.4333 -73.9500 203° Southwest 420 483 36,000  Level Gander Center
Sun 01:46:52 PM 53.3167 -74.0667 211° Southwest 420 483 36,000  Level Gander Center
Sun 01:47:52 PM 53.2333 -74.1500 211° Southwest 420 483 36,000  Level Gander Center
Sun 01:48:52 PM 53.1167 -74.2333 203° Southwest 420 483 36,000  Level Gander Center
Sun 01:49:52 PM 53.0333 -74.3167 211° Southwest 430 495 36,000  Level Gander Center
Sun 01:50:52 PM 52.9167 -74.4167 207° Southwest 430 495 36,000  Level Gander Center
Sun 01:51:52 PM 52.8000 -74.5000 203° Southwest 430 495 36,000  Level Gander Center
Sun 01:52:52 PM 52.7000 -74.5833 207° Southwest 430 495 36,000  Level Gander Center
Sun 01:53:52 PM 52.5833 -74.6833 208° Southwest 430 495 36,000  Level Gander Center
Sun 01:54:52 PM 52.4833 -74.7667 207° Southwest 430 495 36,000  Level Gander Center
Sun 01:55:52 PM 52.3667 -74.8333 199° South 430 495 36,000  Level Gander Center
Sun 01:56:52 PM 52.2667 -74.9167 207° Southwest 430 495 36,000  Level Gander Center
Sun 01:57:52 PM 52.1500 -75.0167 208° Southwest 440 506 36,000  Level Gander Center
Sun 01:58:52 PM 52.0500 -75.1000 207° Southwest 430 495 36,000  Level Gander Center
Sun 01:59:52 PM 51.9500 -75.1833 207° Southwest 430 495 36,000  Level Gander Center
Sun 02:00:52 PM 51.8333 -75.2500 199° South 430 495 36,000  Level Gander Center
Sun 02:01:52 PM 51.7333 -75.3500 212° Southwest 430 495 36,000  Level Gander Center
Sun 02:03:01 PM 51.6000 -75.4000 193° South 420 483 36,000  Level Montreal Center
Sun 02:04:01 PM 51.5000 -75.4833 207° Southwest 420 483 36,000  Level Montreal Center
Sun 02:05:01 PM 51.3833 -75.5667 204° Southwest 420 483 36,000  Level Montreal Center
Sun 02:06:01 PM 51.2833 -75.6500 208° Southwest 430 495 36,000  Level Montreal Center
Sun 02:07:01 PM 51.1667 -75.7167 200° South 430 495 36,000  Level Montreal Center
Sun 02:08:01 PM 51.0667 -75.8000 208° Southwest 420 483 36,000  Level Montreal Center
Sun 02:09:01 PM 50.9500 -75.8833 204° Southwest 430 495 36,000  Level Montreal Center
Sun 02:10:01 PM 50.8500 -75.9667 208° Southwest 430 495 36,000  Level Montreal Center
Sun 02:11:01 PM 50.7333 -76.0500 204° Southwest 430 495 36,000  Level Montreal Center
Sun 02:12:01 PM 50.6333 -76.1167 203° Southwest 430 495 36,000  Level Montreal Center
Sun 02:13:01 PM 50.5167 -76.2000 204° Southwest 430 495 36,000  Level Montreal Center
Sun 02:14:01 PM 50.4167 -76.2833 208° Southwest 430 495 36,000  Level Montreal Center
Sun 02:15:01 PM 50.3167 -76.3667 208° Southwest 430 495 36,000  Level Montreal Center
Sun 02:16:01 PM 50.2000 -76.4333 200° South 430 495 36,000  Level Montreal Center
Sun 02:17:01 PM 50.0833 -76.5167 205° Southwest 430 495 36,000  Level Montreal Center
Sun 02:18:01 PM 49.9667 -76.6000 205° Southwest 430 495 36,000  Level Montreal Center
Sun 02:19:01 PM 49.8667 -76.6667 203° Southwest 430 495 36,000  Level Montreal Center
Sun 02:20:01 PM 49.7500 -76.7500 205° Southwest 430 495 36,000  Level Montreal Center
Sun 02:21:01 PM 49.6333 -76.8167 200° South 440 506 36,000  Level Montreal Center
Sun 02:23:01 PM 49.4167 -76.9667 204° Southwest 450 518 36,000  Level Montreal Center
Sun 02:24:01 PM 49.3000 -77.0500 205° Southwest 440 506 36,000  Level Montreal Center
Sun 02:25:01 PM 49.2000 -77.1167 204° Southwest 420 483 36,000  Level Montreal Center
Sun 02:26:01 PM 49.1000 -77.2000 209° Southwest 440 506 36,000  Level Montreal Center
Sun 02:27:01 PM 48.9833 -77.3000 209° Southwest 440 506 36,000  Level Montreal Center
Sun 02:28:01 PM 48.8500 -77.3667 198° South 440 506 36,000  Level Montreal Center
Sun 02:29:01 PM 48.7500 -77.4500 209° Southwest 440 506 36,000  Level Montreal Center
Sun 02:30:01 PM 48.6333 -77.5167 201° Southwest 440 506 36,000  Level Montreal Center
Sun 02:35:08 PM 48.0620 -77.8870 201° Southwest 448 516 36,000  Level FlightAware ADS-B
Sun 02:35:47 PM 47.9870 -77.9300 201° Southwest 447 514 36,000  Level FlightAware ADS-B
Sun 02:36:28 PM 47.9200 -77.9690 201° Southwest 448 516 36,000  Level FlightAware ADS-B
Sun 02:37:06 PM 47.8580 -78.0050 201° Southwest 448 516 36,000  Level FlightAware ADS-B
Sun 02:37:40 PM 47.8020 -78.0370 201° Southwest 448 516 36,000  Level FlightAware ADS-B
Sun 02:38:08 PM 47.7140 -78.0900 202° Southwest 453 521 36,000  Level FlightAware ADS-B
Sun 02:38:49 PM 47.6320 -78.1370 201° Southwest 455 524 36,000  Level FlightAware ADS-B
Sun 02:39:24 PM 47.5620 -78.1770 201° Southwest 456 525 36,000  Level FlightAware ADS-B
Sun 02:39:57 PM 47.4980 -78.2140 201° Southwest 458 527 36,000  Level FlightAware ADS-B
Sun 02:40:34 PM 47.4250 -78.2560 201° Southwest 460 529 36,000  Level FlightAware ADS-B
Sun 02:41:26 PM 47.3210 -78.3150 201° Southwest 463 533 36,000  Level FlightAware ADS-B
Sun 02:42:11 PM 47.2320 -78.3650 201° Southwest 464 534 36,000  Level FlightAware ADS-B
Sun 02:42:52 PM 47.1480 -78.4130 201° Southwest 465 535 36,000  Level FlightAware ADS-B
Sun 02:44:06 PM 47.0000 -78.4970 201° Southwest 465 535 36,000  Level FlightAware ADS-B
Sun 02:44:34 PM 46.9440 -78.5280 201° Southwest 465 535 36,000  Level FlightAware ADS-B
Sun 02:45:52 PM 46.7880 -78.6150 201° Southwest 465 535 36,000  Level FlightAware ADS-B
Sun 02:47:00 PM 46.6510 -78.6910 201° Southwest 467 537 36,000  Level FlightAware ADS-B
Sun 02:47:34 PM 46.5820 -78.7300 201° Southwest 468 539 36,000  Level FlightAware ADS-B
Sun 02:48:11 PM 46.5070 -78.7710 201° Southwest 468 539 36,000  Level FlightAware ADS-B
Sun 02:48:49 PM 46.4300 -78.8130 201° Southwest 469 540 36,000  Level FlightAware ADS-B
Sun 02:49:25 PM 46.3570 -78.8540 201° Southwest 470 541 36,000  Level FlightAware ADS-B
Sun 02:50:23 PM 46.2380 -78.9180 200° South 473 544 36,000  Level FlightAware ADS-B
Sun 02:51:05 PM 46.1520 -78.9650 201° Southwest 475 547 36,000  Level FlightAware ADS-B
Sun 02:51:42 PM 46.0770 -79.0060 201° Southwest 477 549 36,000  Level FlightAware ADS-B
Sun 02:52:25 PM 45.9870 -79.0540 200° South 477 549 36,000  Level FlightAware ADS-B
Sun 02:52:57 PM 45.9210 -79.0900 201° Southwest 478 550 36,000  Level FlightAware ADS-B
Sun 02:53:33 PM 45.8460 -79.1310 201° Southwest 478 550 36,000  Level FlightAware ADS-B
Sun 02:54:05 PM 45.7800 -79.1660 200° South 479 551 36,000  Level FlightAware ADS-B
Sun 02:54:43 PM 45.7010 -79.2080 200° South 481 554 36,000  Level FlightAware ADS-B
Sun 02:55:59 PM 45.5430 -79.2920 200° South 481 554 36,000  Level FlightAware ADS-B
Sun 02:56:39 PM 45.4600 -79.3360 200° South 481 554 36,000  Level FlightAware ADS-B
Sun 02:57:12 PM 45.3930 -79.3710 200° South 480 552 36,000  Level FlightAware ADS-B
Sun 02:57:56 PM 45.2990 -79.4210 201° Southwest 479 551 36,000  Level FlightAware ADS-B
Sun 02:58:29 PM 45.2300 -79.4570 200° South 478 550 36,000  Level FlightAware ADS-B
Sun 02:59:21 PM 45.1230 -79.5130 200° South 477 549 36,000  Level FlightAware ADS-B
Sun 02:59:58 PM 45.0470 -79.5530 200° South 476 548 36,000  Level FlightAware ADS-B
Sun 03:00:34 PM 44.9720 -79.5920 200° South 476 548 36,000  Level FlightAware ADS-B
Sun 03:01:07 PM 44.9050 -79.6270 200° South 475 547 36,000  Level FlightAware ADS-B
Sun 03:01:35 PM 44.8480 -79.6560 200° South 477 549 36,000  Level FlightAware ADS-B
Sun 03:02:12 PM 44.7710 -79.6960 200° South 478 550 36,000  Level FlightAware ADS-B
Sun 03:02:59 PM 44.6740 -79.7460 200° South 481 554 36,000  Level FlightAware ADS-B
Sun 03:03:39 PM 44.5910 -79.7920 202° Southwest 471 542 36,000  Level FlightAware ADS-B
Sun 03:04:07 PM 44.5370 -79.8330 208° Southwest 459 528 36,000  Level FlightAware ADS-B
Sun 03:05:08 PM 44.4290 -79.9300 213° Southwest 457 526 36,000  Level FlightAware ADS-B
Sun 03:05:42 PM 44.3690 -79.9850 213° Southwest 456 525 36,000  Level FlightAware ADS-B
Sun 03:07:00 PM 44.2300 -80.1090 213° Southwest 458 527 36,000  Level FlightAware ADS-B
Sun 03:08:08 PM 44.1120 -80.2150 213° Southwest 458 527 36,000  Level FlightAware ADS-B
Sun 03:08:36 PM 44.0600 -80.2600 212° Southwest 459 528 36,000  Level FlightAware ADS-B
Sun 03:09:13 PM 43.9940 -80.3200 213° Southwest 459 528 36,000  Level FlightAware ADS-B
Sun 03:09:47 PM 43.9320 -80.3740 212° Southwest 457 526 36,000  Level FlightAware ADS-B
Sun 03:10:21 PM 43.8780 -80.4220 213° Southwest 457 526 36,000  Level FlightAware ADS-B
Sun 03:10:57 PM 43.8080 -80.4830 212° Southwest 456 525 36,000  Level FlightAware ADS-B
Sun 03:11:39 PM 43.7320 -80.5500 213° Southwest 455 524 36,000  Level FlightAware ADS-B
Sun 03:11:41 PM 43.7280 -80.5530 208° Southwest 455 524 36,000  Level FlightAware ADS-B
Sun 03:12:44 PM 43.6180 -80.6490 212° Southwest 455 524 36,000  Level FlightAware ADS-B
Sun 03:13:25 PM 43.5500 -80.7090 213° Southwest 456 525 36,000  Level FlightAware ADS-B
Sun 03:14:09 PM 43.4660 -80.7810 212° Southwest 455 524 36,000  Level FlightAware ADS-B
Sun 03:14:55 PM 43.3850 -80.8510 212° Southwest 455 524 36,000  Level FlightAware ADS-B
Sun 03:15:32 PM 43.3200 -80.9070 212° Southwest 454 522 36,000  Level FlightAware ADS-B
Sun 03:16:17 PM 43.2390 -80.9770 212° Southwest 452 520 36,000  Level FlightAware ADS-B
Sun 03:16:48 PM 43.1830 -81.0250 212° Southwest 452 520 36,000  Level FlightAware ADS-B
Sun 03:17:31 PM 43.1080 -81.0890 212° Southwest 454 522 36,000  Level FlightAware ADS-B
Sun 03:18:07 PM 43.0440 -81.1420 211° Southwest 459 528 36,000  Level FlightAware ADS-B
Sun 03:18:44 PM 42.9730 -81.1900 206° Southwest 468 539 36,000  Level FlightAware ADS-B
Sun 03:19:24 PM 42.8940 -81.2380 204° Southwest 469 540 36,000  Level FlightAware ADS-B
Sun 03:19:57 PM 42.8300 -81.2780 205° Southwest 470 541 36,000  Level FlightAware ADS-B
Sun 03:20:33 PM 42.7560 -81.3230 204° Southwest 471 542 36,000  Level FlightAware ADS-B
Sun 03:21:07 PM 42.6930 -81.3610 204° Southwest 471 542 36,000  Level FlightAware ADS-B
Sun 03:21:56 PM 42.5920 -81.4230 204° Southwest 473 544 36,000  Level FlightAware ADS-B
Sun 03:22:39 PM 42.5050 -81.4770 205° Southwest 475 547 36,000  Level FlightAware ADS-B
Sun 03:23:13 PM 42.4370 -81.5180 204° Southwest 475 547 36,000  Level FlightAware ADS-B
Sun 03:24:12 PM 42.3180 -81.5900 204° Southwest 475 547 36,000  Level FlightAware ADS-B
Sun 03:24:42 PM 42.2600 -81.6250 204° Southwest 474 545 36,000  Level FlightAware ADS-B
Sun 03:25:23 PM 42.1790 -81.6740 204° Southwest 474 545 36,000  Level FlightAware ADS-B
Sun 03:25:58 PM 42.1060 -81.7180 204° Southwest 474 545 36,000  Level FlightAware ADS-B
Sun 03:26:31 PM 42.0400 -81.7580 204° Southwest 474 545 36,000  Level FlightAware ADS-B
Sun 03:27:19 PM 41.9420 -81.8160 204° Southwest 474 545 36,000  Level FlightAware ADS-B
Sun 03:27:59 PM 41.8650 -81.8620 204° Southwest 473 544 36,000  Level FlightAware ADS-B
Sun 03:28:33 PM 41.7940 -81.9050 204° Southwest 471 542 36,000  Level FlightAware ADS-B
Sun 03:29:05 PM 41.7320 -81.9410 203° Southwest 471 542 36,000  Level FlightAware ADS-B
Sun 03:29:56 PM 41.6300 -82.0020 204° Southwest 469 540 36,000  Level FlightAware ADS-B
Sun 03:30:55 PM 41.5130 -82.0710 204° Southwest 469 540 36,000  Level FlightAware ADS-B
Sun 03:31:36 PM 41.4330 -82.1180 204° Southwest 468 539 36,000  Level FlightAware ADS-B
Sun 03:32:16 PM 41.3510 -82.1620 202° Southwest 475 547 36,000  Level FlightAware ADS-B
Sun 03:32:46 PM 41.2880 -82.1870 197° South 479 551 36,000  Level FlightAware ADS-B
Sun 03:33:34 PM 41.1860 -82.2240 195° South 481 554 36,000  Level FlightAware ADS-B
Sun 03:34:32 PM 41.0600 -82.2680 195° South 480 552 36,000  Level FlightAware ADS-B
Sun 03:35:13 PM 40.9760 -82.2980 195° South 480 552 36,000  Level FlightAware ADS-B
Sun 03:35:43 PM 40.9060 -82.3230 195° South 480 552 36,000  Level FlightAware ADS-B
Sun 03:36:25 PM 40.8170 -82.3550 195° South 480 552 36,000  Level FlightAware ADS-B
Sun 03:37:04 PM 40.7320 -82.3710 188° South 489 563 36,000  Level FlightAware ADS-B
Sun 03:37:35 PM 40.6610 -82.3830 187° South 487 560 36,000  Level FlightAware ADS-B
Sun 03:38:14 PM 40.5740 -82.3960 186° South 490 564 36,000  Level FlightAware ADS-B
Sun 03:38:50 PM 40.4940 -82.4060 185° South 489 563 36,000  Level FlightAware ADS-B
Sun 03:39:39 PM 40.3830 -82.4200 185° South 488 562 36,000  Level FlightAware ADS-B
Sun 03:40:39 PM 40.2470 -82.4380 186° South 487 560 36,000  Level FlightAware ADS-B
Sun 03:41:15 PM 40.1650 -82.4490 186° South 486 559 36,000  Level FlightAware ADS-B
Sun 03:41:51 PM 40.0850 -82.4600 186° South 486 559 36,000  Level FlightAware ADS-B
Sun 03:42:23 PM 40.0150 -82.4690 186° South 485 558 36,000  Level FlightAware ADS-B
Sun 03:43:03 PM 39.9260 -82.4800 185° South 485 558 36,000  Level FlightAware ADS-B
Sun 03:43:31 PM 39.8610 -82.4890 186° South 485 558 36,000  Level FlightAware ADS-B
Sun 03:44:10 PM 39.7770 -82.5000 186° South 485 558 36,000  Level FlightAware ADS-B
Sun 03:44:53 PM 39.6810 -82.5120 185° South 485 558 36,000  Level FlightAware ADS-B
Sun 03:45:23 PM 39.6120 -82.5210 186° South 484 557 36,000  Level FlightAware ADS-B
Sun 03:46:03 PM 39.5230 -82.5320 185° South 484 557 36,000  Level FlightAware ADS-B
Sun 03:46:43 PM 39.4370 -82.5430 186° South 483 556 36,000  Level FlightAware ADS-B
Sun 03:47:19 PM 39.3570 -82.5530 186° South 482 555 36,000  Level FlightAware ADS-B
Sun 03:47:54 PM 39.2790 -82.5630 186° South 481 554 36,000  Level FlightAware ADS-B
Sun 03:48:37 PM 39.1810 -82.5760 186° South 480 552 36,000  Level FlightAware ADS-B
Sun 03:49:08 PM 39.1130 -82.5840 185° South 480 552 36,000  Level FlightAware ADS-B
Sun 03:49:40 PM 39.0450 -82.5930 186° South 478 550 36,000  Level FlightAware ADS-B
Sun 03:50:15 PM 38.9660 -82.6030 186° South 477 549 36,000  Level FlightAware ADS-B
Sun 03:50:51 PM 38.8850 -82.6130 185° South 477 549 36,000  Level FlightAware ADS-B
Sun 03:51:13 PM 38.8370 -82.6190 186° South 477 549 36,000  Level FlightAware ADS-B
Sun 03:51:59 PM 38.7420 -82.6310 186° South 477 549 36,000  Level FlightAware ADS-B
Sun 03:52:34 PM 38.6630 -82.6400 185° South 477 549 36,000  Level FlightAware ADS-B
Sun 03:53:12 PM 38.5790 -82.6510 186° South 478 550 36,000  Level FlightAware ADS-B
Sun 03:53:57 PM 38.4880 -82.6610 185° South 478 550 36,000  Level FlightAware ADS-B
Sun 03:54:44 PM 38.3750 -82.6760 186° South 479 551 36,000  Level FlightAware ADS-B
Sun 03:55:40 PM 38.2530 -82.6910 186° South 480 552 36,000  Level FlightAware ADS-B
Sun 03:56:32 PM 38.1351 -82.7057 186° South 480 552 36,000  Level FlightAware ADS-B
Sun 03:57:04 PM 38.0638 -82.7144 185° South 480 552 36,000  Level FlightAware ADS-B
Sun 03:57:34 PM 37.9970 -82.7226 186° South 480 552 36,000  Level FlightAware ADS-B
Sun 03:58:05 PM 37.9279 -82.7310 185° South 480 552 36,000  Level FlightAware ADS-B
Sun 03:58:37 PM 37.8575 -82.7396 186° South 481 554 36,000  Level FlightAware ADS-B
Sun 03:59:13 PM 37.7788 -82.7491 185° South 480 552 36,000  Level FlightAware ADS-B
Sun 03:59:48 PM 37.7002 -82.7590 186° South 480 552 36,000  Level FlightAware ADS-B
Sun 04:00:10 PM 37.6544 -82.7727 193° South 474 545 36,000  Level FlightAware ADS-B
Sun 04:00:16 PM 37.6425 -82.7780 199° South 472 543 36,000  Level FlightAware ADS-B
Sun 04:01:05 PM 37.5466 -82.8364 206° Southwest 467 537 36,000  Level FlightAware ADS-B
Sun 04:01:38 PM 37.4838 -82.8782 208° Southwest 465 535 36,000  Level FlightAware ADS-B
Sun 04:02:16 PM 37.4117 -82.9264 208° Southwest 464 534 36,000  Level FlightAware ADS-B
Sun 04:03:02 PM 37.3227 -82.9851 208° Southwest 464 534 36,000  Level FlightAware ADS-B
Sun 04:03:32 PM 37.2658 -83.0225 208° Southwest 463 533 36,000  Level FlightAware ADS-B
Sun 04:04:06 PM 37.2024 -83.0638 207° Southwest 462 532 36,000  Level FlightAware ADS-B
Sun 04:04:39 PM 37.1404 -83.1042 207° Southwest 459 528 36,000  Level FlightAware ADS-B
Sun 04:05:12 PM 37.0768 -83.1455 207° Southwest 458 527 36,000  Level FlightAware ADS-B
Sun 04:05:43 PM 37.0198 -83.1825 207° Southwest 455 524 36,000  Level FlightAware ADS-B
Sun 04:06:13 PM 36.9636 -83.2190 207° Southwest 453 521 36,000  Level FlightAware ADS-B
Sun 04:06:44 PM 36.9068 -83.2556 207° Southwest 451 519 36,000  Level FlightAware ADS-B
Sun 04:07:15 PM 36.8487 -83.2932 207° Southwest 450 518 36,000  Level FlightAware ADS-B
Sun 04:07:45 PM 36.7930 -83.3292 207° Southwest 449 517 36,000  Level FlightAware ADS-B
Sun 04:08:16 PM 36.7371 -83.3653 207° Southwest 446 513 36,000  Level FlightAware ADS-B
Sun 04:08:47 PM 36.6803 -83.4020 207° Southwest 446 513 36,000  Level FlightAware ADS-B
Sun 04:09:17 PM 36.6242 -83.4378 207° Southwest 446 513 36,000  Level FlightAware ADS-B
Sun 04:09:47 PM 36.5689 -83.4733 207° Southwest 445 512 36,000  Level FlightAware ADS-B
Sun 04:10:18 PM 36.5133 -83.5087 207° Southwest 444 511 36,000  Level FlightAware ADS-B
Sun 04:10:48 PM 36.4590 -83.5435 207° Southwest 444 511 36,000  Level FlightAware ADS-B
Sun 04:11:19 PM 36.4021 -83.5799 207° Southwest 443 510 36,000  Level FlightAware ADS-B
Sun 04:11:49 PM 36.3462 -83.6154 207° Southwest 444 511 36,000  Level FlightAware ADS-B
Sun 04:12:21 PM 36.2893 -83.6517 207° Southwest 444 511 36,000  Level FlightAware ADS-B
Sun 04:12:56 PM 36.2254 -83.6923 207° Southwest 444 511 36,000  Level FlightAware ADS-B
Sun 04:13:29 PM 36.1640 -83.7311 207° Southwest 444 511 36,000  Level FlightAware ADS-B
Sun 04:13:59 PM 36.1088 -83.7660 207° Southwest 444 511 36,000  Level FlightAware ADS-B
Sun 04:14:31 PM 36.0510 -83.8026 207° Southwest 444 511 36,000  Level FlightAware ADS-B
Sun 04:15:04 PM 35.9913 -83.8402 207° Southwest 444 511 36,000  Level FlightAware ADS-B
Sun 04:15:34 PM 35.9359 -83.8748 207° Southwest 445 512 36,000  Level FlightAware ADS-B
Sun 04:15:47 PM 35.9099 -83.8881 203° Southwest 448 516 36,000  Level FlightAware ADS-B
Sun 04:16:19 PM 35.8466 -83.9091 195° South 454 522 36,000  Level FlightAware ADS-B
Sun 04:16:49 PM 35.7835 -83.9249 191° South 455 524 36,000  Level FlightAware ADS-B
Sun 04:17:22 PM 35.7169 -83.9407 191° South 455 524 36,000  Level FlightAware ADS-B
Sun 04:17:55 PM 35.6477 -83.9571 191° South 456 525 36,000  Level FlightAware ADS-B
Sun 04:18:41 PM 35.5524 -83.9801 191° South 457 526 36,000  Level FlightAware ADS-B
Sun 04:19:12 PM 35.4886 -83.9956 191° South 457 526 36,000  Level FlightAware ADS-B
Sun 04:19:42 PM 35.4261 -84.0107 191° South 456 525 36,000  Level FlightAware ADS-B
Sun 04:20:12 PM 35.3636 -84.0258 191° South 456 525 36,000  Level FlightAware ADS-B
Sun 04:20:43 PM 35.2991 -84.0413 191° South 455 524 36,000  Level FlightAware ADS-B
Sun 04:21:16 PM 35.2323 -84.0574 191° South 454 522 36,000  Level FlightAware ADS-B
Sun 04:21:47 PM 35.1677 -84.0730 191° South 452 520 36,000  Level FlightAware ADS-B
Sun 04:22:23 PM 35.0936 -84.0906 191° South 450 518 36,000  Level FlightAware ADS-B
Sun 04:22:55 PM 35.0294 -84.1061 191° South 450 518 36,000  Level FlightAware ADS-B
Sun 04:24:10 PM 34.8756 -84.1427 191° South 450 518 36,000 -170 Level FlightAware ADS-B
Sun 04:24:41 PM 34.8119 -84.1579 191° South 451 519 35,700 -762 Descending FlightAware ADS-B
Sun 04:25:13 PM 34.7477 -84.1732 191° South 454 522 35,200 -627 Descending FlightAware ADS-B
Sun 04:25:48 PM 34.6752 -84.1902 191° South 448 516 35,000 -176 Descending FlightAware ADS-B
Sun 04:26:21 PM 34.6084 -84.2060 191° South 445 512 35,000  Level FlightAware ADS-B
Sun 04:26:51 PM 34.5468 -84.2206 191° South 446 513 35,000  Level FlightAware ADS-B
Sun 04:27:21 PM 34.4859 -84.2350 191° South 449 517 35,000  Level FlightAware ADS-B
Sun 04:27:53 PM 34.4215 -84.2502 191° South 452 520 35,000  Level FlightAware ADS-B
Sun 04:29:05 PM 34.2709 -84.2856 191° South 459 528 35,000  Level FlightAware ADS-B
Sun 04:29:37 PM 34.2054 -84.3009 191° South 459 528 35,000  Level FlightAware ADS-B
Sun 04:30:07 PM 34.1417 -84.3158 191° South 461 531 35,000  Level FlightAware ADS-B
Sun 04:30:38 PM 34.0762 -84.3310 191° South 461 531 35,000  Level FlightAware ADS-B
Sun 04:31:09 PM 34.0139 -84.3457 191° South 449 517 35,000  Level FlightAware ADS-B
Sun 04:31:41 PM 33.9496 -84.3604 191° South 437 503 35,000  Level FlightAware ADS-B
Sun 04:32:13 PM 33.8858 -84.3754 191° South 433 498 35,000  Level FlightAware ADS-B
Sun 04:32:45 PM 33.8239 -84.3897 191° South 431 496 35,000  Level FlightAware ADS-B
Sun 04:33:19 PM 33.7570 -84.4054 191° South 431 496 35,000  Level FlightAware ADS-B
Sun 04:33:49 PM 33.6974 -84.4191 191° South 432 497 35,000  Level FlightAware ADS-B
Sun 04:34:21 PM 33.6352 -84.4318 190° South 434 499 35,000  Level FlightAware ADS-B
Sun 04:34:55 PM 33.5671 -84.4340 182° South 439 505 35,000 94 Level FlightAware ADS-B
Sun 04:35:25 PM 33.5056 -84.4330 179° South 439 505 35,100 600 Climbing FlightAware ADS-B
Sun 04:35:55 PM 33.4440 -84.4310 178° South 447 514 35,600 1,048 Climbing FlightAware ADS-B
Sun 04:36:28 PM 33.3750 -84.4290 179° South 453 521 36,200 1,048 Climbing FlightAware ADS-B
Sun 04:36:58 PM 33.3100 -84.4280 179° South 455 524 36,700 762 Climbing FlightAware ADS-B
Sun 04:37:31 PM 33.2430 -84.4270 179° South 458 527 37,000 286 Climbing FlightAware ADS-B
Sun 04:38:01 PM 33.1790 -84.4260 179° South 456 525 37,000  Level FlightAware ADS-B
Sun 04:39:06 PM 33.0440 -84.4230 179° South 447 514 37,000  Level FlightAware ADS-B
Sun 04:39:41 PM 32.9740 -84.4210 179° South 445 512 37,000  Level FlightAware ADS-B
Sun 04:40:13 PM 32.9050 -84.4200 179° South 444 511 37,000  Level FlightAware ADS-B
Sun 04:40:51 PM 32.8390 -84.4190 179° South 443 510 37,000  Level FlightAware ADS-B
Sun 04:41:22 PM 32.7720 -84.4180 179° South 442 509 37,000  Level FlightAware ADS-B
Sun 04:42:28 PM 32.6390 -84.4150 179° South 442 509 37,000  Level FlightAware ADS-B
Sun 04:42:56 PM 32.5710 -84.4130 179° South 442 509 37,000  Level FlightAware ADS-B
Sun 04:43:33 PM 32.4960 -84.4120 179° South 441 507 37,000  Level FlightAware ADS-B
Sun 04:44:09 PM 32.4210 -84.4100 179° South 441 507 37,000  Level FlightAware ADS-B
Sun 04:44:43 PM 32.3530 -84.4090 179° South 442 509 37,000  Level FlightAware ADS-B
Sun 04:45:14 PM 32.2900 -84.4080 179° South 441 507 37,000  Level FlightAware ADS-B
Sun 04:45:51 PM 32.2190 -84.4070 179° South 441 507 37,000  Level FlightAware ADS-B
Sun 04:46:29 PM 32.1540 -84.4040 178° South 441 507 37,000  Level FlightAware ADS-B
Sun 04:47:23 PM 32.0350 -84.4020 179° South 443 510 37,000  Level FlightAware ADS-B
Sun 04:47:47 PM 31.9930 -84.4000 178° South 443 510 37,000  Level FlightAware ADS-B
Sun 04:48:29 PM 31.8910 -84.4000 180° South 447 514 37,000  Level FlightAware ADS-B
Sun 04:49:15 PM 31.7960 -84.3980 179° South 449 517 37,000  Level FlightAware ADS-B
Sun 04:49:46 PM 31.7300 -84.3970 179° South 451 519 37,000  Level FlightAware ADS-B
Sun 04:50:33 PM 31.6300 -84.3950 179° South 453 521 37,000  Level FlightAware ADS-B
Sun 04:51:10 PM 31.5530 -84.3930 179° South 455 524 37,000  Level FlightAware ADS-B
Sun 04:51:58 PM 31.4530 -84.3910 179° South 456 525 37,000  Level FlightAware ADS-B
Sun 04:52:37 PM 31.3690 -84.3900 179° South 457 526 37,000  Level FlightAware ADS-B
Sun 04:53:17 PM 31.2840 -84.3780 173° South 469 540 37,000  Level FlightAware ADS-B
Sun 04:53:57 PM 31.2010 -84.3430 160° South 477 549 37,000  Level FlightAware ADS-B
Sun 04:54:34 PM 31.1270 -84.3080 158° South 477 549 37,000  Level FlightAware ADS-B
Sun 04:55:08 PM 31.0570 -84.2750 158° South 476 548 37,000  Level FlightAware ADS-B
Sun 04:55:54 PM 30.9620 -84.2310 158° South 476 548 37,000  Level FlightAware ADS-B
Sun 04:56:27 PM 30.8950 -84.1990 158° South 474 545 37,000  Level FlightAware ADS-B
Sun 04:57:10 PM 30.8074 -84.1588 158° South 474 545 37,000  Level FlightAware ADS-B
Sun 04:57:49 PM 30.7268 -84.1215 158° South 474 545 37,000  Level FlightAware ADS-B
Sun 04:58:29 PM 30.6457 -84.0840 158° South 474 545 37,000  Level FlightAware ADS-B
Sun 04:58:59 PM 30.5832 -84.0554 158° South 475 547 37,000  Level FlightAware ADS-B
Sun 04:59:29 PM 30.5233 -84.0279 158° South 474 545 37,000  Level FlightAware ADS-B
Sun 04:59:59 PM 30.4621 -83.9996 158° South 475 547 37,000  Level FlightAware ADS-B
Sun 05:00:35 PM 30.3907 -83.9669 158° South 474 545 37,000  Level FlightAware ADS-B
Sun 05:01:05 PM 30.3275 -83.9379 158° South 474 545 37,000  Level FlightAware ADS-B
Sun 05:01:56 PM 30.2223 -83.8897 158° South 475 547 37,000  Level FlightAware ADS-B
Sun 05:03:01 PM 30.0910 -83.8300 159° South 475 547 37,000  Level FlightAware ADS-B
Sun 05:03:34 PM 30.0240 -83.7990 158° South 475 547 37,000  Level FlightAware ADS-B
Sun 05:04:07 PM 29.9550 -83.7680 159° South 476 548 37,000  Level FlightAware ADS-B
Sun 05:04:53 PM 29.8610 -83.7250 158° South 478 550 37,000  Level FlightAware ADS-B
Sun 05:05:37 PM 29.7700 -83.6840 159° South 478 550 37,000  Level FlightAware ADS-B
Sun 05:06:09 PM 29.7030 -83.6540 159° South 479 551 37,000  Level FlightAware ADS-B
Sun 05:06:44 PM 29.6330 -83.6220 158° South 480 552 37,000  Level FlightAware ADS-B
Sun 05:07:18 PM 29.5590 -83.5890 159° South 482 555 37,000  Level FlightAware ADS-B
Sun 05:08:00 PM 29.4730 -83.5500 158° South 484 557 37,000  Level FlightAware ADS-B
Sun 05:08:33 PM 29.4050 -83.5200 159° South 485 558 37,000  Level FlightAware ADS-B
Sun 05:09:06 PM 29.3350 -83.4880 158° South 486 559 37,000  Level FlightAware ADS-B
Sun 05:10:08 PM 29.2050 -83.4300 159° South 489 563 37,000  Level FlightAware ADS-B
Sun 05:10:40 PM 29.1410 -83.4010 158° South 488 562 37,000  Level FlightAware ADS-B
Sun 05:10:56 PM 29.1050 -83.3850 159° South 488 562 37,000  Level FlightAware ADS-B
Sun 05:12:21 PM 28.9260 -83.3050 159° South 487 560 37,000  Level FlightAware ADS-B
Sun 05:13:17 PM 28.8080 -83.2530 159° South 487 560 37,000  Level FlightAware ADS-B
Sun 05:13:57 PM 28.7260 -83.2170 159° South 487 560 37,000  Level FlightAware ADS-B
Sun 05:14:31 PM 28.6530 -83.1840 158° South 487 560 37,000  Level FlightAware ADS-B
Sun 05:15:37 PM 28.5160 -83.1240 159° South 486 559 37,000  Level FlightAware ADS-B
Sun 05:16:22 PM 28.4210 -83.0820 159° South 484 557 37,000  Level FlightAware ADS-B
Sun 05:16:48 PM 28.3650 -83.0570 159° South 482 555 37,000  Level FlightAware ADS-B
Sun 05:17:27 PM 28.2840 -83.0220 159° South 480 552 37,000  Level FlightAware ADS-B
Sun 05:18:13 PM 28.1900 -82.9810 159° South 478 550 37,000  Level FlightAware ADS-B
Sun 05:19:02 PM 28.0910 -82.9370 159° South 476 548 37,000  Level FlightAware ADS-B
Sun 05:19:34 PM 28.0230 -82.9070 159° South 477 549 37,000  Level FlightAware ADS-B
Sun 05:20:38 PM 27.8920 -82.8500 159° South 476 548 37,000  Level FlightAware ADS-B
Sun 05:21:15 PM 27.8130 -82.8160 159° South 476 548 37,000  Level FlightAware ADS-B
Sun 05:21:46 PM 27.7530 -82.7900 159° South 476 548 37,000  Level FlightAware ADS-B
Sun 05:22:25 PM 27.6690 -82.7540 159° South 475 547 37,000  Level FlightAware ADS-B
Sun 05:23:07 PM 27.5830 -82.7230 162° South 464 534 37,000  Level FlightAware ADS-B
Sun 05:23:39 PM 27.5170 -82.7110 171° South 454 522 37,000  Level FlightAware ADS-B
Sun 05:24:14 PM 27.4440 -82.7070 177° South 448 516 37,000  Level FlightAware ADS-B
Sun 05:24:47 PM 27.3720 -82.7040 178° South 448 516 37,000  Level FlightAware ADS-B
Sun 05:25:18 PM 27.3120 -82.7010 177° South 448 516 37,000  Level FlightAware ADS-B
Sun 05:25:50 PM 27.2450 -82.6970 177° South 448 516 37,000  Level FlightAware ADS-B
Sun 05:26:26 PM 27.1670 -82.6930 177° South 448 516 37,000  Level FlightAware ADS-B
Sun 05:27:01 PM 27.0940 -82.6890 177° South 447 514 37,000  Level FlightAware ADS-B
Sun 05:28:13 PM 26.9480 -82.6800 177° South 445 512 37,000  Level FlightAware ADS-B
Sun 05:28:56 PM 26.8590 -82.6750 177° South 445 512 37,000  Level FlightAware ADS-B
Sun 05:29:33 PM 26.7810 -82.6710 177° South 445 512 37,000  Level FlightAware ADS-B
Sun 05:30:02 PM 26.7220 -82.6680 177° South 445 512 37,000  Level FlightAware ADS-B
Sun 05:31:02 PM 26.5970 -82.6610 177° South 445 512 37,000  Level FlightAware ADS-B
Sun 05:31:30 PM 26.5400 -82.6570 176° South 445 512 37,000  Level FlightAware ADS-B
Sun 05:32:07 PM 26.4640 -82.6530 177° South 445 512 37,000  Level FlightAware ADS-B
Sun 05:32:48 PM 26.3780 -82.6480 177° South 443 510 37,000  Level FlightAware ADS-B
Sun 05:33:27 PM 26.2980 -82.6440 177° South 442 509 37,000  Level FlightAware ADS-B
Sun 05:33:57 PM 26.2370 -82.6400 177° South 441 507 37,000  Level FlightAware ADS-B
Sun 05:34:32 PM 26.1670 -82.6370 178° South 439 505 37,000  Level FlightAware ADS-B
Sun 05:35:04 PM 26.1010 -82.6330 177° South 439 505 37,000  Level FlightAware ADS-B
Sun 05:35:31 PM 26.0530 -82.6300 177° South 438 504 37,000  Level FlightAware ADS-B
Sun 05:36:36 PM 25.9150 -82.6230 177° South 438 504 37,000  Level FlightAware ADS-B
Sun 05:37:04 PM 25.8580 -82.6200 177° South 438 504 37,000  Level FlightAware ADS-B
Sun 05:37:33 PM 25.8060 -82.6170 177° South 438 504 37,000  Level FlightAware ADS-B
Sun 05:38:03 PM 25.7390 -82.6130 177° South 431 496 37,000  Level FlightAware ADS-B
Sun 05:38:38 PM 25.6720 -82.6090 177° South 431 496 37,000  Level FlightAware ADS-B
Sun 05:39:23 PM 25.5770 -82.6040 177° South 431 496 37,000  Level FlightAware ADS-B
Sun 05:39:43 PM 25.5380 -82.6020 177° South 431 496 37,000  Level FlightAware ADS-B
Sun 05:40:08 PM 25.4920 -82.5990 177° South 431 496 37,000  Level FlightAware ADS-B
Sun 05:40:45 PM 25.4290 -82.5960 178° South 431 496 37,000 -309 Level FlightAware ADS-B
Sun 05:41:29 PM 25.3240 -82.5900 177° South 36,400 -424 Descending FlightAware ADS-B
Sun 05:42:24 PM 25.2280 -82.5850 177° South 437 503 36,300 -66 Descending FlightAware ADS-B
Sun 05:43:00 PM 25.1660 -82.5810 177° South 437 503 36,300  Level FlightAware ADS-B
Sun 05:43:36 PM 25.1040 -82.5780 177° South 437 503 36,300  Level FlightAware ADS-B
Sun 05:44:12 PM 25.0420 -82.5740 177° South 437 503 36,300  Level FlightAware ADS-B
Sun 05:44:48 PM 24.9810 -82.5700 177° South 437 503 36,300 -2,774 Level FlightAware ADS-B
Sun 05:45:39 PM 24.8000 -82.5620 178° South 31,700 -4,200 Descending FlightAware ADS-B
Sun 05:45:58 PM 24.7570 -82.5590 176° South 447 514 31,400 -1,224 Descending FlightAware ADS-B
Sun 05:46:28 PM 24.6990 -82.5560 177° South 451 519 30,700 -393 Descending FlightAware ADS-B
Sun 05:47:45 PM 24.5620 -82.5480 177° South 451 519 30,700  Level FlightAware ADS-B
Sun 05:48:34 PM 24.4750 -82.5430 177° South 451 519 30,700  Level FlightAware ADS-B
Sun 05:49:11 PM 24.4100 -82.5400 178° South 451 519 30,700  Level FlightAware ADS-B
Sun 05:49:47 PM 24.3460 -82.5360 177° South 451 519 30,700  Level FlightAware ADS-B
Sun 05:50:49 PM 24.2360 -82.5300 177° South 451 519 30,700  Level FlightAware ADS-B
Sun 05:52:01 PM 24.1090 -82.5220 177° South 451 519 30,700  Level FlightAware ADS-B
Sun 05:52:49 PM 24.0240 -82.5170 177° South 451 519 30,700  Level FlightAware ADS-B
Sun 05:53:50 PM 23.9160 -82.5110 177° South 451 519 30,700  Level FlightAware ADS-B
Sun 05:54:50 PM 23.8100 -82.5050 177° South 451 519 30,700  Level FlightAware ADS-B
Sun 05:55:30 PM 23.7390 -82.5010 177° South 451 519 30,700  Level FlightAware ADS-B
Sun 05:55:54 PM 23.6960 -82.4990 178° South 451 519 30,700  Level FlightAware ADS-B
Sun 05:56:18 PM 23.6540 -82.4960 176° South 451 519 30,700  Level FlightAware ADS-B
Sun 06:00:00 PM 23.2076 -82.4167 180° South  Level FlightAware Approximate
Sun 06:01:00 PM 23.0863 -82.4073 170° South  Level FlightAware Approximate
Sun 06:02:00 PM 22.9891 -82.4091 180° South  Level Estimated
Sun 06:03:00 PM 22.9891 -82.4091 180° South  Level Estimated
Sun 06:04:00 PM 22.9891 -82.4091 180° South  Level Estimated
Sun 06:05:00 PM 22.9891 -82.4091 180° South  Level Estimated
Sun 06:06:00 PM 22.9891 -82.4091 180° South  Level Estimated
Sun 06:07:00 PM 22.9891 -82.4091 180° South  Level Estimated
Sun 06:08:00 PM 22.9891 -82.4091 180° South  Level Estimated
Sun 06:09:00 PM 22.9891 -82.4091 180° South  Level Estimated
Sun 06:10:00 PM 22.9891 -82.4091 180° South  Level Estimated
Sun 06:11:00 PM 22.9891 -82.4091 180° South  Level Estimated
Sun 06:12:00 PM 22.9891 -82.4091 180° South  Level Estimated
Sun 06:13:00 PM 22.9891 -82.4091 180° South  Level Estimated
Sun 06:14:00 PM 22.9891 -82.4091 180° South  Level Estimated
Sun 06:15:00 PM 22.9891 -82.4091 180° South  Level Estimated
Sun 06:16:00 PM 22.9891 -82.4091 180° South  Level Estimated
Sun 06:17:00 PM 22.9891 -82.4091 180° South  Level Estimated
Sun 06:18:00 PM 22.9891 -82.4091 180° South  Level Estimated
Sun 06:19:00 PM 22.9891 -82.4091 180° South  Level Estimated
Sun 06:20:00 PM 22.9891 -82.4091 180° South  Level Estimated
Sun 06:21:00 PM 22.9891 -82.4091 180° South  Level Estimated
Sun 06:22:00 PM 22.9891 -82.4091 180° South  Level Estimated
Sun 06:23:00 PM 22.9891 -82.4091 180° South  Level Estimated

Login

Don't have an account? Register now (free) for customized features, flight alerts, and more!